<?xml version="1.0" encoding="UTF-8" standalone="no" ?><gpx xmlns="http://www.topografix.com/GPX/1/1" xmlns:gpxx="http://www.garmin.com/xmlschemas/GpxExtensions/v3" xmlns:wptx1="http://www.garmin.com/xmlschemas/WaypointExtension/v1" xmlns:gpxtpx="http://www.garmin.com/xmlschemas/TrackPointExtension/v1" creator="GuideVTT.com" version="1.1" xmlns:xsi="http://www.w3.org/2001/XMLSchema-instance" xsi:schemaLocation="http://www.topografix.com/GPX/1/1 http://www.topografix.com/GPX/1/1/gpx.xsd http://www.garmin.com/xmlschemas/GpxExtensions/v3 http://www8.garmin.com/xmlschemas/GpxExtensionsv3.xsd http://www.garmin.com/xmlschemas/WaypointExtension/v1 http://www8.garmin.com/xmlschemas/WaypointExtensionv1.xsd http://www.garmin.com/xmlschemas/TrackPointExtension/v1 http://www.garmin.com/xmlschemas/TrackPointExtensionv1.xsd">
<metadata><link href="http://www.garmin.com"><text>Garmin International</text></link><time>2013-06-22T15:13:50Z</time></metadata>
<trk><name>bex-ollon_13.04.2011.gpx</name><extensions><gpxx:TrackExtension><gpxx:DisplayColor>Cyan</gpxx:DisplayColor></gpxx:TrackExtension></extensions><trkseg>
<trkpt lat="46.24615498" lon="7.01256196"><ele>431.6000061912</ele><time>2011-04-13T15:11:39Z</time></trkpt>
<trkpt lat="46.24614400" lon="7.01252592"><ele>431.7999879096</ele><time>2011-04-13T15:11:42Z</time></trkpt>
<trkpt lat="46.24604593" lon="7.01248392"><ele>432.3999940248</ele><time>2011-04-13T15:11:51Z</time></trkpt>
<trkpt lat="46.24588592" lon="7.01231595"><ele>433.00000014</ele><time>2011-04-13T15:11:56Z</time></trkpt>
<trkpt lat="46.24583697" lon="7.01219894"><ele>432.7999879416</ele><time>2011-04-13T15:11:58Z</time></trkpt>
<trkpt lat="46.24566095" lon="7.01207397"><ele>432.7999879416</ele><time>2011-04-13T15:12:03Z</time></trkpt>
<trkpt lat="46.24562298" lon="7.01209199"><ele>433.00000014</ele><time>2011-04-13T15:12:04Z</time></trkpt>
<trkpt lat="46.24535300" lon="7.01219399"><ele>434.2000120656</ele><time>2011-04-13T15:12:11Z</time></trkpt>
<trkpt lat="46.24515192" lon="7.01230397"><ele>435.2000120976</ele><time>2011-04-13T15:12:17Z</time></trkpt>
<trkpt lat="46.24498495" lon="7.01236892"><ele>435.9999999312</ele><time>2011-04-13T15:12:22Z</time></trkpt>
<trkpt lat="46.24480692" lon="7.01246297"><ele>435.7999877328</ele><time>2011-04-13T15:12:27Z</time></trkpt>
<trkpt lat="46.24464800" lon="7.01254796"><ele>435.399993816</ele><time>2011-04-13T15:12:31Z</time></trkpt>
<trkpt lat="46.24435798" lon="7.01280395"><ele>435.2000120976</ele><time>2011-04-13T15:12:39Z</time></trkpt>
<trkpt lat="46.24407593" lon="7.01307896"><ele>434.9999998992</ele><time>2011-04-13T15:12:46Z</time></trkpt>
<trkpt lat="46.24391693" lon="7.01323494"><ele>434.6000059824</ele><time>2011-04-13T15:12:49Z</time></trkpt>
<trkpt lat="46.24369900" lon="7.01336293"><ele>433.6000062552</ele><time>2011-04-13T15:12:53Z</time></trkpt>
<trkpt lat="46.24361996" lon="7.01320494"><ele>432.3999940248</ele><time>2011-04-13T15:12:55Z</time></trkpt>
<trkpt lat="46.24358894" lon="7.01311994"><ele>431.7999879096</ele><time>2011-04-13T15:12:56Z</time></trkpt>
<trkpt lat="46.24339599" lon="7.01257696"><ele>428.6000060952</ele><time>2011-04-13T15:13:02Z</time></trkpt>
<trkpt lat="46.24310497" lon="7.01184799"><ele>427.7999877816</ele><time>2011-04-13T15:13:09Z</time></trkpt>
<trkpt lat="46.24283994" lon="7.01118993"><ele>427.6000060632</ele><time>2011-04-13T15:13:16Z</time></trkpt>
<trkpt lat="46.24269292" lon="7.01105297"><ele>427.6000060632</ele><time>2011-04-13T15:13:19Z</time></trkpt>
<trkpt lat="46.24259594" lon="7.01118297"><ele>427.6000060632</ele><time>2011-04-13T15:13:21Z</time></trkpt>
<trkpt lat="46.24217299" lon="7.01174598"><ele>426.999999948</ele><time>2011-04-13T15:13:29Z</time></trkpt>
<trkpt lat="46.24199999" lon="7.01193097"><ele>427.3999938648</ele><time>2011-04-13T15:13:32Z</time></trkpt>
<trkpt lat="46.24166295" lon="7.01208595"><ele>427.3999938648</ele><time>2011-04-13T15:13:37Z</time></trkpt>
<trkpt lat="46.24159095" lon="7.01208092"><ele>427.7999877816</ele><time>2011-04-13T15:13:38Z</time></trkpt>
<trkpt lat="46.24126699" lon="7.01202795"><ele>430.000000044</ele><time>2011-04-13T15:13:43Z</time></trkpt>
<trkpt lat="46.24111595" lon="7.01196400"><ele>431.000000076</ele><time>2011-04-13T15:13:46Z</time></trkpt>
<trkpt lat="46.24096700" lon="7.01179594"><ele>432.000000108</ele><time>2011-04-13T15:13:51Z</time></trkpt>
<trkpt lat="46.24088192" lon="7.01145899"><ele>431.3999939928</ele><time>2011-04-13T15:13:58Z</time></trkpt>
<trkpt lat="46.24078193" lon="7.01124500"><ele>431.2000122744</ele><time>2011-04-13T15:14:03Z</time></trkpt>
<trkpt lat="46.24058696" lon="7.01122396"><ele>434.6000059824</ele><time>2011-04-13T15:14:08Z</time></trkpt>
<trkpt lat="46.24036895" lon="7.01129696"><ele>438.7999878288</ele><time>2011-04-13T15:14:14Z</time></trkpt>
<trkpt lat="46.24018095" lon="7.01124692"><ele>441.7999879248</ele><time>2011-04-13T15:14:20Z</time></trkpt>
<trkpt lat="46.24010098" lon="7.01110594"><ele>441.7999879248</ele><time>2011-04-13T15:14:25Z</time></trkpt>
<trkpt lat="46.24008497" lon="7.01097694"><ele>441.0000000912</ele><time>2011-04-13T15:14:30Z</time></trkpt>
<trkpt lat="46.24003292" lon="7.01078097"><ele>440.0000000592</ele><time>2011-04-13T15:14:37Z</time></trkpt>
<trkpt lat="46.23988699" lon="7.01062297"><ele>443.3999937672</ele><time>2011-04-13T15:14:44Z</time></trkpt>
<trkpt lat="46.23969295" lon="7.01051795"><ele>449.0000000424</ele><time>2011-04-13T15:14:53Z</time></trkpt>
<trkpt lat="46.23957493" lon="7.01038795"><ele>452.0000001384</ele><time>2011-04-13T15:15:00Z</time></trkpt>
<trkpt lat="46.23949095" lon="7.01021494"><ele>453.3999937824</ele><time>2011-04-13T15:15:07Z</time></trkpt>
<trkpt lat="46.23939196" lon="7.00994798"><ele>454.7999877312</ele><time>2011-04-13T15:15:17Z</time></trkpt>
<trkpt lat="46.23932398" lon="7.00973994"><ele>456.3999938784</ele><time>2011-04-13T15:15:25Z</time></trkpt>
<trkpt lat="46.23931300" lon="7.00972192"><ele>456.6000060768</ele><time>2011-04-13T15:15:26Z</time></trkpt>
<trkpt lat="46.23925692" lon="7.00954892"><ele>458.0000000256</ele><time>2011-04-13T15:15:33Z</time></trkpt>
<trkpt lat="46.23921099" lon="7.00937600"><ele>459.0000000576</ele><time>2011-04-13T15:15:39Z</time></trkpt>
<trkpt lat="46.23913195" lon="7.00917592"><ele>460.6000062048</ele><time>2011-04-13T15:15:47Z</time></trkpt>
<trkpt lat="46.23904394" lon="7.00905698"><ele>461.7999876504</ele><time>2011-04-13T15:15:52Z</time></trkpt>
<trkpt lat="46.23894596" lon="7.00885196"><ele>463.2000120792</ele><time>2011-04-13T15:15:59Z</time></trkpt>
<trkpt lat="46.23888896" lon="7.00862800"><ele>463.600005996</ele><time>2011-04-13T15:16:06Z</time></trkpt>
<trkpt lat="46.23888292" lon="7.00839599"><ele>462.9999998808</ele><time>2011-04-13T15:16:14Z</time></trkpt>
<trkpt lat="46.23889692" lon="7.00822592"><ele>462.3999937656</ele><time>2011-04-13T15:16:20Z</time></trkpt>
<trkpt lat="46.23889994" lon="7.00809499"><ele>462.200012352</ele><time>2011-04-13T15:16:25Z</time></trkpt>
<trkpt lat="46.23886398" lon="7.00792098"><ele>463.2000120792</ele><time>2011-04-13T15:16:31Z</time></trkpt>
<trkpt lat="46.23875996" lon="7.00784194"><ele>465.7999877784</ele><time>2011-04-13T15:16:36Z</time></trkpt>
<trkpt lat="46.23862996" lon="7.00777698"><ele>469.0000000728</ele><time>2011-04-13T15:16:42Z</time></trkpt>
<trkpt lat="46.23845796" lon="7.00769794"><ele>473.2000120944</ele><time>2011-04-13T15:16:50Z</time></trkpt>
<trkpt lat="46.23835092" lon="7.00762292"><ele>475.7999877936</ele><time>2011-04-13T15:16:56Z</time></trkpt>
<trkpt lat="46.23831798" lon="7.00759694"><ele>476.3999939088</ele><time>2011-04-13T15:16:58Z</time></trkpt>
<trkpt lat="46.23823894" lon="7.00750298"><ele>477.2000122224</ele><time>2011-04-13T15:17:04Z</time></trkpt>
<trkpt lat="46.23812998" lon="7.00735596"><ele>478.6000061712</ele><time>2011-04-13T15:17:11Z</time></trkpt>
<trkpt lat="46.23808698" lon="7.00719997"><ele>478.7999878896</ele><time>2011-04-13T15:17:16Z</time></trkpt>
<trkpt lat="46.23807399" lon="7.00712495"><ele>478.7999878896</ele><time>2011-04-13T15:17:18Z</time></trkpt>
<trkpt lat="46.23801699" lon="7.00692697"><ele>479.3999940048</ele><time>2011-04-13T15:17:24Z</time></trkpt>
<trkpt lat="46.23793200" lon="7.00687693"><ele>480.6000062352</ele><time>2011-04-13T15:17:30Z</time></trkpt>
<trkpt lat="46.23787500" lon="7.00698799"><ele>481.6000059624</ele><time>2011-04-13T15:17:35Z</time></trkpt>
<trkpt lat="46.23786997" lon="7.00701892"><ele>481.7999876808</ele><time>2011-04-13T15:17:36Z</time></trkpt>
<trkpt lat="46.23788095" lon="7.00727893"><ele>481.9999998792</ele><time>2011-04-13T15:17:45Z</time></trkpt>
<trkpt lat="46.23789998" lon="7.00747498"><ele>481.9999998792</ele><time>2011-04-13T15:17:52Z</time></trkpt>
<trkpt lat="46.23796594" lon="7.00774094"><ele>481.399993764</ele><time>2011-04-13T15:18:02Z</time></trkpt>
<trkpt lat="46.23802093" lon="7.00799500"><ele>481.000000152</ele><time>2011-04-13T15:18:11Z</time></trkpt>
<trkpt lat="46.23797894" lon="7.00823598"><ele>481.6000059624</ele><time>2011-04-13T15:18:19Z</time></trkpt>
<trkpt lat="46.23786293" lon="7.00843295"><ele>482.9999999112</ele><time>2011-04-13T15:18:27Z</time></trkpt>
<trkpt lat="46.23774894" lon="7.00863697"><ele>484.2000121416</ele><time>2011-04-13T15:18:35Z</time></trkpt>
<trkpt lat="46.23759395" lon="7.00892296"><ele>485.7999878088</ele><time>2011-04-13T15:18:46Z</time></trkpt>
<trkpt lat="46.23743797" lon="7.00909898"><ele>487.6000061544</ele><time>2011-04-13T15:18:55Z</time></trkpt>
<trkpt lat="46.23725197" lon="7.00924499"><ele>490.0000001352</ele><time>2011-04-13T15:19:05Z</time></trkpt>
<trkpt lat="46.23708593" lon="7.00937198"><ele>492.3999938112</ele><time>2011-04-13T15:19:14Z</time></trkpt>
<trkpt lat="46.23690999" lon="7.00945496"><ele>494.799987792</ele><time>2011-04-13T15:19:23Z</time></trkpt>
<trkpt lat="46.23675099" lon="7.00942294"><ele>496.2000122208</ele><time>2011-04-13T15:19:31Z</time></trkpt>
<trkpt lat="46.23654798" lon="7.00935295"><ele>497.3999939712</ele><time>2011-04-13T15:19:41Z</time></trkpt>
<trkpt lat="46.23640297" lon="7.00922596"><ele>497.799987888</ele><time>2011-04-13T15:19:49Z</time></trkpt>
<trkpt lat="46.23625595" lon="7.00895095"><ele>498.6000062016</ele><time>2011-04-13T15:20:00Z</time></trkpt>
<trkpt lat="46.23613299" lon="7.00870000"><ele>499.6000062336</ele><time>2011-04-13T15:20:08Z</time></trkpt>
<trkpt lat="46.23597298" lon="7.00840998"><ele>500.3999937624</ele><time>2011-04-13T15:20:18Z</time></trkpt>
<trkpt lat="46.23580995" lon="7.00820396"><ele>501.200012076</ele><time>2011-04-13T15:20:27Z</time></trkpt>
<trkpt lat="46.23566494" lon="7.00803196"><ele>501.6000059928</ele><time>2011-04-13T15:20:34Z</time></trkpt>
<trkpt lat="46.23544894" lon="7.00778092"><ele>501.7999877112</ele><time>2011-04-13T15:20:43Z</time></trkpt>
<trkpt lat="46.23521592" lon="7.00752293"><ele>501.9999999096</ele><time>2011-04-13T15:20:53Z</time></trkpt>
<trkpt lat="46.23492692" lon="7.00716695"><ele>502.6000060248</ele><time>2011-04-13T15:21:06Z</time></trkpt>
<trkpt lat="46.23473195" lon="7.00694692"><ele>503.7999877752</ele><time>2011-04-13T15:21:14Z</time></trkpt>
<trkpt lat="46.23456700" lon="7.00676294"><ele>504.7999878072</ele><time>2011-04-13T15:21:21Z</time></trkpt>
<trkpt lat="46.23442794" lon="7.00661693"><ele>505.7999878392</ele><time>2011-04-13T15:21:27Z</time></trkpt>
<trkpt lat="46.23421496" lon="7.00648592"><ele>506.7999878712</ele><time>2011-04-13T15:21:36Z</time></trkpt>
<trkpt lat="46.23411496" lon="7.00651098"><ele>506.7999878712</ele><time>2011-04-13T15:21:41Z</time></trkpt>
<trkpt lat="46.23407699" lon="7.00652095"><ele>506.7999878712</ele><time>2011-04-13T15:21:43Z</time></trkpt>
<trkpt lat="46.23393098" lon="7.00660695"><ele>507.200012268</ele><time>2011-04-13T15:21:51Z</time></trkpt>
<trkpt lat="46.23377197" lon="7.00668398"><ele>508.0000001016</ele><time>2011-04-13T15:22:01Z</time></trkpt>
<trkpt lat="46.23376996" lon="7.00668792"><ele>508.0000001016</ele><time>2011-04-13T15:22:03Z</time></trkpt>
<trkpt lat="46.23369696" lon="7.00679194"><ele>508.6000062168</ele><time>2011-04-13T15:23:24Z</time></trkpt>
<trkpt lat="46.23358196" lon="7.00684500"><ele>509.3999937456</ele><time>2011-04-13T15:23:30Z</time></trkpt>
<trkpt lat="46.23342295" lon="7.00692999"><ele>510.9999998928</ele><time>2011-04-13T15:23:38Z</time></trkpt>
<trkpt lat="46.23324593" lon="7.00706997"><ele>512.9999999568</ele><time>2011-04-13T15:23:47Z</time></trkpt>
<trkpt lat="46.23319396" lon="7.00725395"><ele>515.2000122192</ele><time>2011-04-13T15:23:53Z</time></trkpt>
<trkpt lat="46.23320896" lon="7.00758495"><ele>518.2000123152</ele><time>2011-04-13T15:24:03Z</time></trkpt>
<trkpt lat="46.23315196" lon="7.00775192"><ele>519.2000123472</ele><time>2011-04-13T15:24:09Z</time></trkpt>
<trkpt lat="46.23312992" lon="7.00775896"><ele>519.4000245456</ele><time>2011-04-13T15:24:10Z</time></trkpt>
<trkpt lat="46.23300394" lon="7.00763499"><ele>519.7999876776</ele><time>2011-04-13T15:24:17Z</time></trkpt>
<trkpt lat="46.23285793" lon="7.00756794"><ele>520.5999755112</ele><time>2011-04-13T15:24:24Z</time></trkpt>
<trkpt lat="46.23271896" lon="7.00765494"><ele>521.99999994</ele><time>2011-04-13T15:24:31Z</time></trkpt>
<trkpt lat="46.23249399" lon="7.00795895"><ele>525.000000036</ele><time>2011-04-13T15:24:44Z</time></trkpt>
<trkpt lat="46.23233892" lon="7.00816800"><ele>526.000000068</ele><time>2011-04-13T15:24:52Z</time></trkpt>
<trkpt lat="46.23218394" lon="7.00836900"><ele>528.4000245288</ele><time>2011-04-13T15:25:00Z</time></trkpt>
<trkpt lat="46.23205000" lon="7.00852892"><ele>530.7999877248</ele><time>2011-04-13T15:25:07Z</time></trkpt>
<trkpt lat="46.23195997" lon="7.00862993"><ele>532.400024352</ele><time>2011-04-13T15:25:12Z</time></trkpt>
<trkpt lat="46.23189099" lon="7.00866899"><ele>533.400024384</ele><time>2011-04-13T15:25:16Z</time></trkpt>
<trkpt lat="46.23174992" lon="7.00868097"><ele>534.5999756544</ele><time>2011-04-13T15:25:22Z</time></trkpt>
<trkpt lat="46.23165093" lon="7.00867695"><ele>535.0000000512</ele><time>2011-04-13T15:25:26Z</time></trkpt>
<trkpt lat="46.23152998" lon="7.00885096"><ele>536.40002448</ele><time>2011-04-13T15:25:33Z</time></trkpt>
<trkpt lat="46.23136494" lon="7.00911197"><ele>538.2000123456</ele><time>2011-04-13T15:25:41Z</time></trkpt>
<trkpt lat="46.23131096" lon="7.00919093"><ele>538.400024544</ele><time>2011-04-13T15:25:43Z</time></trkpt>
<trkpt lat="46.23110393" lon="7.00937198"><ele>537.0000001152</ele><time>2011-04-13T15:25:49Z</time></trkpt>
<trkpt lat="46.23084392" lon="7.00950692"><ele>535.5999756864</ele><time>2011-04-13T15:25:56Z</time></trkpt>
<trkpt lat="46.23049993" lon="7.00975000"><ele>529.9999998912</ele><time>2011-04-13T15:26:04Z</time></trkpt>
<trkpt lat="46.23044897" lon="7.00979694"><ele>529.4000245608</ele><time>2011-04-13T15:26:05Z</time></trkpt>
<trkpt lat="46.23025099" lon="7.01008695"><ele>527.4000244968</ele><time>2011-04-13T15:26:09Z</time></trkpt>
<trkpt lat="46.23015895" lon="7.01028200"><ele>526.4000244648</ele><time>2011-04-13T15:26:11Z</time></trkpt>
<trkpt lat="46.22985293" lon="7.01063496"><ele>524.5999756392</ele><time>2011-04-13T15:26:15Z</time></trkpt>
<trkpt lat="46.22974900" lon="7.01068399"><ele>524.2000122024</ele><time>2011-04-13T15:26:16Z</time></trkpt>
<trkpt lat="46.22912899" lon="7.01084392"><ele>521.7999877416</ele><time>2011-04-13T15:26:22Z</time></trkpt>
<trkpt lat="46.22874199" lon="7.01111499"><ele>521.2000121064</ele><time>2011-04-13T15:26:27Z</time></trkpt>
<trkpt lat="46.22841594" lon="7.01125497"><ele>520.2000120744</ele><time>2011-04-13T15:26:31Z</time></trkpt>
<trkpt lat="46.22834696" lon="7.01138799"><ele>520.2000120744</ele><time>2011-04-13T15:26:34Z</time></trkpt>
<trkpt lat="46.22837394" lon="7.01145295"><ele>520.5999755112</ele><time>2011-04-13T15:26:36Z</time></trkpt>
<trkpt lat="46.22843094" lon="7.01160198"><ele>521.2000121064</ele><time>2011-04-13T15:26:42Z</time></trkpt>
<trkpt lat="46.22848400" lon="7.01194094"><ele>524.2000122024</ele><time>2011-04-13T15:26:53Z</time></trkpt>
<trkpt lat="46.22854695" lon="7.01215493"><ele>526.4000244648</ele><time>2011-04-13T15:27:00Z</time></trkpt>
<trkpt lat="46.22867494" lon="7.01230095"><ele>528.000000132</ele><time>2011-04-13T15:27:06Z</time></trkpt>
<trkpt lat="46.22886496" lon="7.01242592"><ele>529.5999754944</ele><time>2011-04-13T15:27:14Z</time></trkpt>
<trkpt lat="46.22904793" lon="7.01254494"><ele>531.5999755584</ele><time>2011-04-13T15:27:22Z</time></trkpt>
<trkpt lat="46.22922898" lon="7.01274100"><ele>535.7999878848</ele><time>2011-04-13T15:27:31Z</time></trkpt>
<trkpt lat="46.22938396" lon="7.01299698"><ele>540.2000121048</ele><time>2011-04-13T15:27:40Z</time></trkpt>
<trkpt lat="46.22956292" lon="7.01326596"><ele>544.2000122328</ele><time>2011-04-13T15:27:50Z</time></trkpt>
<trkpt lat="46.22972293" lon="7.01347299"><ele>545.7999879</ele><time>2011-04-13T15:27:58Z</time></trkpt>
<trkpt lat="46.22984296" lon="7.01367097"><ele>546.799987932</ele><time>2011-04-13T15:28:05Z</time></trkpt>
<trkpt lat="46.22993298" lon="7.01384892"><ele>547.5999754608</ele><time>2011-04-13T15:28:11Z</time></trkpt>
<trkpt lat="46.23006793" lon="7.01407992"><ele>549.200012088</ele><time>2011-04-13T15:28:19Z</time></trkpt>
<trkpt lat="46.23017396" lon="7.01424094"><ele>549.7999877232</ele><time>2011-04-13T15:28:25Z</time></trkpt>
<trkpt lat="46.23027496" lon="7.01440992"><ele>549.7999877232</ele><time>2011-04-13T15:28:32Z</time></trkpt>
<trkpt lat="46.23035895" lon="7.01454294"><ele>549.5999755248</ele><time>2011-04-13T15:28:37Z</time></trkpt>
<trkpt lat="46.23051996" lon="7.01477596"><ele>548.9999998896</ele><time>2011-04-13T15:28:42Z</time></trkpt>
<trkpt lat="46.23075499" lon="7.01513797"><ele>548.5999754928</ele><time>2011-04-13T15:28:48Z</time></trkpt>
<trkpt lat="46.23088097" lon="7.01536395"><ele>549.5999755248</ele><time>2011-04-13T15:28:53Z</time></trkpt>
<trkpt lat="46.23098600" lon="7.01554894"><ele>550.9999999536</ele><time>2011-04-13T15:29:00Z</time></trkpt>
<trkpt lat="46.23107795" lon="7.01567198"><ele>551.9999999856</ele><time>2011-04-13T15:29:06Z</time></trkpt>
<trkpt lat="46.23124097" lon="7.01581892"><ele>553.4000244144</ele><time>2011-04-13T15:29:12Z</time></trkpt>
<trkpt lat="46.23143393" lon="7.01590793"><ele>554.5999756848</ele><time>2011-04-13T15:29:18Z</time></trkpt>
<trkpt lat="46.23165596" lon="7.01606493"><ele>555.4000244784</ele><time>2011-04-13T15:29:26Z</time></trkpt>
<trkpt lat="46.23191899" lon="7.01625796"><ele>553.0000000176</ele><time>2011-04-13T15:29:34Z</time></trkpt>
<trkpt lat="46.23220598" lon="7.01637497"><ele>550.5999755568</ele><time>2011-04-13T15:29:40Z</time></trkpt>
<trkpt lat="46.23244294" lon="7.01651797"><ele>547.9999998576</ele><time>2011-04-13T15:29:44Z</time></trkpt>
<trkpt lat="46.23265995" lon="7.01670497"><ele>546.799987932</ele><time>2011-04-13T15:29:47Z</time></trkpt>
<trkpt lat="46.23279196" lon="7.01705198"><ele>545.5999757016</ele><time>2011-04-13T15:29:50Z</time></trkpt>
<trkpt lat="46.23273899" lon="7.01747895"><ele>544.4000244312</ele><time>2011-04-13T15:29:53Z</time></trkpt>
<trkpt lat="46.23258493" lon="7.01826392"><ele>542.5999756056</ele><time>2011-04-13T15:29:59Z</time></trkpt>
<trkpt lat="46.23256297" lon="7.01838898"><ele>542.799987804</ele><time>2011-04-13T15:30:00Z</time></trkpt>
<trkpt lat="46.23262592" lon="7.01886398"><ele>544.2000122328</ele><time>2011-04-13T15:30:04Z</time></trkpt>
<trkpt lat="46.23280797" lon="7.01907797"><ele>543.0000000024</ele><time>2011-04-13T15:30:07Z</time></trkpt>
<trkpt lat="46.23309799" lon="7.01939598"><ele>543.4000243992</ele><time>2011-04-13T15:30:13Z</time></trkpt>
<trkpt lat="46.23333695" lon="7.01970493"><ele>546.0000000984</ele><time>2011-04-13T15:30:20Z</time></trkpt>
<trkpt lat="46.23346293" lon="7.01994499"><ele>548.5999754928</ele><time>2011-04-13T15:30:25Z</time></trkpt>
<trkpt lat="46.23363694" lon="7.02012797"><ele>550.20001212</ele><time>2011-04-13T15:30:30Z</time></trkpt>
<trkpt lat="46.23395596" lon="7.02033894"><ele>549.200012088</ele><time>2011-04-13T15:30:37Z</time></trkpt>
<trkpt lat="46.23422493" lon="7.02061496"><ele>548.5999754928</ele><time>2011-04-13T15:30:43Z</time></trkpt>
<trkpt lat="46.23432292" lon="7.02085795"><ele>550.7999877552</ele><time>2011-04-13T15:30:47Z</time></trkpt>
<trkpt lat="46.23447798" lon="7.02151593"><ele>553.200012216</ele><time>2011-04-13T15:30:56Z</time></trkpt>
<trkpt lat="46.23460497" lon="7.02204097"><ele>551.7999877872</ele><time>2011-04-13T15:31:02Z</time></trkpt>
<trkpt lat="46.23476992" lon="7.02246794"><ele>546.5999757336</ele><time>2011-04-13T15:31:07Z</time></trkpt>
<trkpt lat="46.23486296" lon="7.02302299"><ele>541.4000243352</ele><time>2011-04-13T15:31:12Z</time></trkpt>
<trkpt lat="46.23491996" lon="7.02372892"><ele>537.799987644</ele><time>2011-04-13T15:31:17Z</time></trkpt>
<trkpt lat="46.23493597" lon="7.02388499"><ele>537.2000123136</ele><time>2011-04-13T15:31:18Z</time></trkpt>
<trkpt lat="46.23506497" lon="7.02431096"><ele>534.0000000192</ele><time>2011-04-13T15:31:21Z</time></trkpt>
<trkpt lat="46.23524199" lon="7.02447097"><ele>531.5999755584</ele><time>2011-04-13T15:31:24Z</time></trkpt>
<trkpt lat="46.23532296" lon="7.02444599"><ele>530.7999877248</ele><time>2011-04-13T15:31:25Z</time></trkpt>
<trkpt lat="46.23564793" lon="7.02428296"><ele>528.2000123304</ele><time>2011-04-13T15:31:29Z</time></trkpt>
<trkpt lat="46.23577299" lon="7.02435295"><ele>526.5999757032</ele><time>2011-04-13T15:31:32Z</time></trkpt>
<trkpt lat="46.23569797" lon="7.02448295"><ele>526.7999879016</ele><time>2011-04-13T15:31:34Z</time></trkpt>
<trkpt lat="46.23539798" lon="7.02490398"><ele>528.4000245288</ele><time>2011-04-13T15:31:41Z</time></trkpt>
<trkpt lat="46.23520394" lon="7.02516499"><ele>528.5999754624</ele><time>2011-04-13T15:31:45Z</time></trkpt>
<trkpt lat="46.23516094" lon="7.02523498"><ele>528.4000245288</ele><time>2011-04-13T15:31:46Z</time></trkpt>
<trkpt lat="46.23512196" lon="7.02558794"><ele>524.7999878376</ele><time>2011-04-13T15:31:50Z</time></trkpt>
<trkpt lat="46.23512800" lon="7.02569397"><ele>523.5999756072</ele><time>2011-04-13T15:31:51Z</time></trkpt>
<trkpt lat="46.23518298" lon="7.02596798"><ele>521.4000243048</ele><time>2011-04-13T15:31:55Z</time></trkpt>
<trkpt lat="46.23525498" lon="7.02591995"><ele>520.999999908</ele><time>2011-04-13T15:31:57Z</time></trkpt>
<trkpt lat="46.23568598" lon="7.02562993"><ele>519.5999754792</ele><time>2011-04-13T15:32:05Z</time></trkpt>
<trkpt lat="46.23616098" lon="7.02541594"><ele>517.4000244816</ele><time>2011-04-13T15:32:12Z</time></trkpt>
<trkpt lat="46.23666599" lon="7.02522593"><ele>513.599975592</ele><time>2011-04-13T15:32:18Z</time></trkpt>
<trkpt lat="46.23733596" lon="7.02494496"><ele>507.3999939864</ele><time>2011-04-13T15:32:25Z</time></trkpt>
<trkpt lat="46.23781297" lon="7.02464196"><ele>504.200012172</ele><time>2011-04-13T15:32:30Z</time></trkpt>
<trkpt lat="46.23799394" lon="7.02452294"><ele>503.6000060568</ele><time>2011-04-13T15:32:32Z</time></trkpt>
<trkpt lat="46.23837599" lon="7.02439092"><ele>502.6000060248</ele><time>2011-04-13T15:32:36Z</time></trkpt>
<trkpt lat="46.23903397" lon="7.02429092"><ele>499.7999876472</ele><time>2011-04-13T15:32:43Z</time></trkpt>
<trkpt lat="46.23944292" lon="7.02419093"><ele>498.2000122848</ele><time>2011-04-13T15:32:47Z</time></trkpt>
<trkpt lat="46.23970494" lon="7.02439000"><ele>495.6000061056</ele><time>2011-04-13T15:32:50Z</time></trkpt>
<trkpt lat="46.23976998" lon="7.02466895"><ele>493.79998776</ele><time>2011-04-13T15:32:52Z</time></trkpt>
<trkpt lat="46.23989495" lon="7.02531092"><ele>492.6000060096</ele><time>2011-04-13T15:32:57Z</time></trkpt>
<trkpt lat="46.24022394" lon="7.02605196"><ele>493.79998776</ele><time>2011-04-13T15:33:04Z</time></trkpt>
<trkpt lat="46.24043492" lon="7.02648397"><ele>495.2000121888</ele><time>2011-04-13T15:33:09Z</time></trkpt>
<trkpt lat="46.24065796" lon="7.02667398"><ele>494.9999999904</ele><time>2011-04-13T15:33:13Z</time></trkpt>
<trkpt lat="46.24137394" lon="7.02698898"><ele>491.2000120608</ele><time>2011-04-13T15:33:22Z</time></trkpt>
<trkpt lat="46.24183998" lon="7.02725996"><ele>489.0000001032</ele><time>2011-04-13T15:33:28Z</time></trkpt>
<trkpt lat="46.24217793" lon="7.02751293"><ele>487.6000061544</ele><time>2011-04-13T15:33:35Z</time></trkpt>
<trkpt lat="46.24238497" lon="7.02765995"><ele>486.7999878408</ele><time>2011-04-13T15:33:39Z</time></trkpt>
<trkpt lat="46.24251598" lon="7.02775894"><ele>486.0000000072</ele><time>2011-04-13T15:33:41Z</time></trkpt>
<trkpt lat="46.24275293" lon="7.02810192"><ele>485.6000060904</ele><time>2011-04-13T15:33:45Z</time></trkpt>
<trkpt lat="46.24324897" lon="7.02921596"><ele>485.399993892</ele><time>2011-04-13T15:33:55Z</time></trkpt>
<trkpt lat="46.24370998" lon="7.03024199"><ele>484.7999877768</ele><time>2011-04-13T15:34:04Z</time></trkpt>
<trkpt lat="46.24392397" lon="7.03072596"><ele>484.6000060584</ele><time>2011-04-13T15:34:09Z</time></trkpt>
<trkpt lat="46.24415992" lon="7.03125796"><ele>490.2000123336</ele><time>2011-04-13T15:34:16Z</time></trkpt>
<trkpt lat="46.24418993" lon="7.03133198"><ele>491.3999937792</ele><time>2011-04-13T15:34:17Z</time></trkpt>
<trkpt lat="46.24439897" lon="7.03153599"><ele>493.6000060416</ele><time>2011-04-13T15:34:21Z</time></trkpt>
<trkpt lat="46.24455999" lon="7.03149894"><ele>490.9999998624</ele><time>2011-04-13T15:34:23Z</time></trkpt>
<trkpt lat="46.24514999" lon="7.03130792"><ele>481.399993764</ele><time>2011-04-13T15:34:29Z</time></trkpt>
<trkpt lat="46.24562399" lon="7.03125092"><ele>477.2000122224</ele><time>2011-04-13T15:34:33Z</time></trkpt>
<trkpt lat="46.24640794" lon="7.03124497"><ele>474.7999877616</ele><time>2011-04-13T15:34:39Z</time></trkpt>
<trkpt lat="46.24695092" lon="7.03079495"><ele>464.600006028</ele><time>2011-04-13T15:34:45Z</time></trkpt>
<trkpt lat="46.24707095" lon="7.03056796"><ele>462.600005964</ele><time>2011-04-13T15:34:47Z</time></trkpt>
<trkpt lat="46.24729894" lon="7.03040997"><ele>461.3999940384</ele><time>2011-04-13T15:34:50Z</time></trkpt>
<trkpt lat="46.24736398" lon="7.03041994"><ele>461.7999876504</ele><time>2011-04-13T15:34:51Z</time></trkpt>
<trkpt lat="46.24780898" lon="7.03047300"><ele>462.9999998808</ele><time>2011-04-13T15:34:57Z</time></trkpt>
<trkpt lat="46.24817393" lon="7.03050292"><ele>462.7999876824</ele><time>2011-04-13T15:35:01Z</time></trkpt>
<trkpt lat="46.24859797" lon="7.03038096"><ele>460.200012288</ele><time>2011-04-13T15:35:06Z</time></trkpt>
<trkpt lat="46.24876494" lon="7.03020997"><ele>455.6000060448</ele><time>2011-04-13T15:35:09Z</time></trkpt>
<trkpt lat="46.24871892" lon="7.02997293"><ele>449.3999939592</ele><time>2011-04-13T15:35:11Z</time></trkpt>
<trkpt lat="46.24843494" lon="7.02901899"><ele>447.2000121768</ele><time>2011-04-13T15:35:20Z</time></trkpt>
<trkpt lat="46.24833193" lon="7.02865195"><ele>448.2000122088</ele><time>2011-04-13T15:35:24Z</time></trkpt>
<trkpt lat="46.24836093" lon="7.02839294"><ele>448.799987844</ele><time>2011-04-13T15:35:28Z</time></trkpt>
<trkpt lat="46.24845497" lon="7.02835598"><ele>449.0000000424</ele><time>2011-04-13T15:35:30Z</time></trkpt>
<trkpt lat="46.24868095" lon="7.02819698"><ele>449.3999939592</ele><time>2011-04-13T15:35:35Z</time></trkpt>
<trkpt lat="46.24867793" lon="7.02796698"><ele>449.799987876</ele><time>2011-04-13T15:35:38Z</time></trkpt>
<trkpt lat="46.24858196" lon="7.02735895"><ele>450.0000000744</ele><time>2011-04-13T15:35:46Z</time></trkpt>
<trkpt lat="46.24852194" lon="7.02682092"><ele>449.799987876</ele><time>2011-04-13T15:35:52Z</time></trkpt>
<trkpt lat="46.24850694" lon="7.02663098"><ele>449.6000061576</ele><time>2011-04-13T15:35:54Z</time></trkpt>
<trkpt lat="46.24859294" lon="7.02629797"><ele>448.799987844</ele><time>2011-04-13T15:35:58Z</time></trkpt>
<trkpt lat="46.24863996" lon="7.02623997"><ele>448.6000061256</ele><time>2011-04-13T15:35:59Z</time></trkpt>
<trkpt lat="46.24879595" lon="7.02608096"><ele>448.0000000104</ele><time>2011-04-13T15:36:02Z</time></trkpt>
<trkpt lat="46.24903399" lon="7.02595498"><ele>447.3999938952</ele><time>2011-04-13T15:36:06Z</time></trkpt>
<trkpt lat="46.24927296" lon="7.02593093"><ele>447.2000121768</ele><time>2011-04-13T15:36:10Z</time></trkpt>
<trkpt lat="46.24950699" lon="7.02587795"><ele>446.9999999784</ele><time>2011-04-13T15:36:14Z</time></trkpt>
<trkpt lat="46.25004292" lon="7.02578299"><ele>446.6000060616</ele><time>2011-04-13T15:36:23Z</time></trkpt>
<trkpt lat="46.25027695" lon="7.02573798"><ele>445.6000060296</ele><time>2011-04-13T15:36:27Z</time></trkpt>
<trkpt lat="46.25061097" lon="7.02555198"><ele>443.9999998824</ele><time>2011-04-13T15:36:32Z</time></trkpt>
<trkpt lat="46.25106795" lon="7.02521998"><ele>443.6000059656</ele><time>2011-04-13T15:36:38Z</time></trkpt>
<trkpt lat="46.25128998" lon="7.02522400"><ele>444.2000120808</ele><time>2011-04-13T15:36:41Z</time></trkpt>
<trkpt lat="46.25135293" lon="7.02538292"><ele>444.3999937992</ele><time>2011-04-13T15:36:43Z</time></trkpt>
<trkpt lat="46.25136995" lon="7.02554997"><ele>444.3999937992</ele><time>2011-04-13T15:36:45Z</time></trkpt>
<trkpt lat="46.25136794" lon="7.02602196"><ele>446.2000121448</ele><time>2011-04-13T15:36:51Z</time></trkpt>
<trkpt lat="46.25141596" lon="7.02629898"><ele>449.0000000424</ele><time>2011-04-13T15:36:55Z</time></trkpt>
<trkpt lat="46.25145997" lon="7.02642898"><ele>450.3999939912</ele><time>2011-04-13T15:36:57Z</time></trkpt>
<trkpt lat="46.25153499" lon="7.02661900"><ele>452.6000062536</ele><time>2011-04-13T15:37:00Z</time></trkpt>
<trkpt lat="46.25153792" lon="7.02690499"><ele>454.6000060128</ele><time>2011-04-13T15:37:04Z</time></trkpt>
<trkpt lat="46.25145997" lon="7.02701798"><ele>454.7999877312</ele><time>2011-04-13T15:37:06Z</time></trkpt>
<trkpt lat="46.25116593" lon="7.02738192"><ele>453.9999998976</ele><time>2011-04-13T15:37:13Z</time></trkpt>
<trkpt lat="46.25107197" lon="7.02768493"><ele>453.6000059808</ele><time>2011-04-13T15:37:18Z</time></trkpt>
<trkpt lat="46.25107599" lon="7.02774393"><ele>453.7999876992</ele><time>2011-04-13T15:37:19Z</time></trkpt>
<trkpt lat="46.25121798" lon="7.02833092"><ele>455.6000060448</ele><time>2011-04-13T15:37:30Z</time></trkpt>
<trkpt lat="46.25129795" lon="7.02863895"><ele>454.9999999296</ele><time>2011-04-13T15:37:36Z</time></trkpt>
<trkpt lat="46.25133692" lon="7.02879695"><ele>454.3999938144</ele><time>2011-04-13T15:37:39Z</time></trkpt>
<trkpt lat="46.25143692" lon="7.02899896"><ele>453.9999998976</ele><time>2011-04-13T15:37:43Z</time></trkpt>
<trkpt lat="46.25154697" lon="7.02929995"><ele>453.3999937824</ele><time>2011-04-13T15:37:47Z</time></trkpt>
<trkpt lat="46.25158595" lon="7.02951897"><ele>453.6000059808</ele><time>2011-04-13T15:37:49Z</time></trkpt>
<trkpt lat="46.25157899" lon="7.03005893"><ele>454.9999999296</ele><time>2011-04-13T15:37:54Z</time></trkpt>
<trkpt lat="46.25153499" lon="7.03026798"><ele>460.200012288</ele><time>2011-04-13T15:37:58Z</time></trkpt>
<trkpt lat="46.25149895" lon="7.03041893"><ele>463.7999877144</ele><time>2011-04-13T15:38:04Z</time></trkpt>
<trkpt lat="46.25146592" lon="7.03059495"><ele>468.0000000408</ele><time>2011-04-13T15:38:11Z</time></trkpt>
<trkpt lat="46.25151194" lon="7.03072194"><ele>471.999999864</ele><time>2011-04-13T15:38:17Z</time></trkpt>
<trkpt lat="46.25162300" lon="7.03072194"><ele>473.2000120944</ele><time>2011-04-13T15:38:22Z</time></trkpt>
<trkpt lat="46.25179793" lon="7.03070794"><ele>474.7999877616</ele><time>2011-04-13T15:38:29Z</time></trkpt>
<trkpt lat="46.25193296" lon="7.03075195"><ele>477.2000122224</ele><time>2011-04-13T15:38:33Z</time></trkpt>
<trkpt lat="46.25211292" lon="7.03080492"><ele>480.3999940368</ele><time>2011-04-13T15:38:38Z</time></trkpt>
<trkpt lat="46.25231895" lon="7.03081498"><ele>482.6000059944</ele><time>2011-04-13T15:38:43Z</time></trkpt>
<trkpt lat="46.25236899" lon="7.03080492"><ele>482.7999877128</ele><time>2011-04-13T15:38:44Z</time></trkpt>
<trkpt lat="46.25253193" lon="7.03070593"><ele>481.7999876808</ele><time>2011-04-13T15:38:48Z</time></trkpt>
<trkpt lat="46.25284793" lon="7.03032698"><ele>475.3999938768</ele><time>2011-04-13T15:38:57Z</time></trkpt>
<trkpt lat="46.25289395" lon="7.03021098"><ele>473.2000120944</ele><time>2011-04-13T15:38:59Z</time></trkpt>
<trkpt lat="46.25296997" lon="7.02988098"><ele>467.7999878424</ele><time>2011-04-13T15:39:04Z</time></trkpt>
<trkpt lat="46.25312897" lon="7.02965694"><ele>467.2000122072</ele><time>2011-04-13T15:39:09Z</time></trkpt>
<trkpt lat="46.25327700" lon="7.02963900"><ele>468.7999878744</ele><time>2011-04-13T15:39:12Z</time></trkpt>
<trkpt lat="46.25356793" lon="7.02952199"><ele>468.3999939576</ele><time>2011-04-13T15:39:18Z</time></trkpt>
<trkpt lat="46.25365896" lon="7.02943297"><ele>467.600006124</ele><time>2011-04-13T15:39:20Z</time></trkpt>
<trkpt lat="46.25394294" lon="7.02923298"><ele>465.9999999768</ele><time>2011-04-13T15:39:25Z</time></trkpt>
<trkpt lat="46.25412592" lon="7.02914698"><ele>465.7999877784</ele><time>2011-04-13T15:39:28Z</time></trkpt>
<trkpt lat="46.25434896" lon="7.02897398"><ele>465.2000121432</ele><time>2011-04-13T15:39:32Z</time></trkpt>
<trkpt lat="46.25458399" lon="7.02861498"><ele>463.9999999128</ele><time>2011-04-13T15:39:38Z</time></trkpt>
<trkpt lat="46.25466999" lon="7.02829395"><ele>462.9999998808</ele><time>2011-04-13T15:39:43Z</time></trkpt>
<trkpt lat="46.25482497" lon="7.02797293"><ele>462.600005964</ele><time>2011-04-13T15:39:50Z</time></trkpt>
<trkpt lat="46.25490292" lon="7.02780898"><ele>462.200012352</ele><time>2011-04-13T15:39:55Z</time></trkpt>
<trkpt lat="46.25496897" lon="7.02748795"><ele>461.0000001216</ele><time>2011-04-13T15:40:01Z</time></trkpt>
<trkpt lat="46.25502597" lon="7.02717698"><ele>461.6000062368</ele><time>2011-04-13T15:40:05Z</time></trkpt>
<trkpt lat="46.25499696" lon="7.02682897"><ele>461.6000062368</ele><time>2011-04-13T15:40:09Z</time></trkpt>
<trkpt lat="46.25484693" lon="7.02664699"><ele>461.3999940384</ele><time>2011-04-13T15:40:12Z</time></trkpt>
<trkpt lat="46.25461794" lon="7.02641892"><ele>460.6000062048</ele><time>2011-04-13T15:40:16Z</time></trkpt>
<trkpt lat="46.25458692" lon="7.02632697"><ele>460.3999940064</ele><time>2011-04-13T15:40:17Z</time></trkpt>
<trkpt lat="46.25435692" lon="7.02580394"><ele>457.6000061088</ele><time>2011-04-13T15:40:23Z</time></trkpt>
<trkpt lat="46.25427595" lon="7.02565894"><ele>457.200012192</ele><time>2011-04-13T15:40:25Z</time></trkpt>
<trkpt lat="46.25420094" lon="7.02543799"><ele>457.3999939104</ele><time>2011-04-13T15:40:28Z</time></trkpt>
<trkpt lat="46.25421795" lon="7.02526297"><ele>458.3999939424</ele><time>2011-04-13T15:40:31Z</time></trkpt>
<trkpt lat="46.25425994" lon="7.02522894"><ele>459.200012256</ele><time>2011-04-13T15:40:33Z</time></trkpt>
<trkpt lat="46.25442892" lon="7.02525300"><ele>461.7999876504</ele><time>2011-04-13T15:40:40Z</time></trkpt>
<trkpt lat="46.25451492" lon="7.02539398"><ele>462.200012352</ele><time>2011-04-13T15:40:45Z</time></trkpt>
<trkpt lat="46.25459396" lon="7.02556992"><ele>462.200012352</ele><time>2011-04-13T15:40:50Z</time></trkpt>
<trkpt lat="46.25475096" lon="7.02575692"><ele>463.2000120792</ele><time>2011-04-13T15:40:57Z</time></trkpt>
<trkpt lat="46.25495397" lon="7.02593395"><ele>464.7999877464</ele><time>2011-04-13T15:41:05Z</time></trkpt>
<trkpt lat="46.25505899" lon="7.02600796"><ele>466.7999878104</ele><time>2011-04-13T15:41:09Z</time></trkpt>
<trkpt lat="46.25521699" lon="7.02610100"><ele>470.60000622</ele><time>2011-04-13T15:41:15Z</time></trkpt>
<trkpt lat="46.25539594" lon="7.02623293"><ele>474.2000121264</ele><time>2011-04-13T15:41:22Z</time></trkpt>
<trkpt lat="46.25551798" lon="7.02641096"><ele>475.6000060752</ele><time>2011-04-13T15:41:28Z</time></trkpt>
<trkpt lat="46.25564698" lon="7.02674297"><ele>475.2000121584</ele><time>2011-04-13T15:41:37Z</time></trkpt>
<trkpt lat="46.25577196" lon="7.02687892"><ele>476.2000121904</ele><time>2011-04-13T15:41:43Z</time></trkpt>
<trkpt lat="46.25595795" lon="7.02695595"><ele>482.6000059944</ele><time>2011-04-13T15:41:50Z</time></trkpt>
<trkpt lat="46.25610497" lon="7.02708093"><ele>487.0000000392</ele><time>2011-04-13T15:41:56Z</time></trkpt>
<trkpt lat="46.25626498" lon="7.02732492"><ele>486.6000061224</ele><time>2011-04-13T15:42:04Z</time></trkpt>
<trkpt lat="46.25641493" lon="7.02762994"><ele>483.2000121096</ele><time>2011-04-13T15:42:12Z</time></trkpt>
<trkpt lat="46.25651300" lon="7.02783798"><ele>482.2000120776</ele><time>2011-04-13T15:42:16Z</time></trkpt>
<trkpt lat="46.25677099" lon="7.02823997"><ele>483.7999877448</ele><time>2011-04-13T15:42:24Z</time></trkpt>
<trkpt lat="46.25703595" lon="7.02869000"><ele>491.2000120608</ele><time>2011-04-13T15:42:34Z</time></trkpt>
<trkpt lat="46.25722798" lon="7.02893693"><ele>494.9999999904</ele><time>2011-04-13T15:42:40Z</time></trkpt>
<trkpt lat="46.25741095" lon="7.02914497"><ele>496.6000061376</ele><time>2011-04-13T15:42:46Z</time></trkpt>
<trkpt lat="46.25749192" lon="7.02923197"><ele>496.6000061376</ele><time>2011-04-13T15:42:49Z</time></trkpt>
<trkpt lat="46.25767197" lon="7.02935292"><ele>495.3999939072</ele><time>2011-04-13T15:42:55Z</time></trkpt>
<trkpt lat="46.25790699" lon="7.02940799"><ele>496.3999939392</ele><time>2011-04-13T15:43:01Z</time></trkpt>
<trkpt lat="46.25817697" lon="7.02948192"><ele>496.799987856</ele><time>2011-04-13T15:43:07Z</time></trkpt>
<trkpt lat="46.25837697" lon="7.02952299"><ele>497.0000000544</ele><time>2011-04-13T15:43:13Z</time></trkpt>
<trkpt lat="46.25854494" lon="7.02954294"><ele>497.0000000544</ele><time>2011-04-13T15:43:18Z</time></trkpt>
<trkpt lat="46.25870294" lon="7.02954294"><ele>497.799987888</ele><time>2011-04-13T15:43:22Z</time></trkpt>
<trkpt lat="46.25899396" lon="7.02961796"><ele>496.2000122208</ele><time>2011-04-13T15:43:28Z</time></trkpt>
<trkpt lat="46.25926595" lon="7.02967496"><ele>493.9999999584</ele><time>2011-04-13T15:43:34Z</time></trkpt>
<trkpt lat="46.25929898" lon="7.02967596"><ele>493.6000060416</ele><time>2011-04-13T15:43:35Z</time></trkpt>
<trkpt lat="46.25949595" lon="7.02969499"><ele>490.9999998624</ele><time>2011-04-13T15:43:40Z</time></trkpt>
<trkpt lat="46.25967097" lon="7.02961796"><ele>491.3999937792</ele><time>2011-04-13T15:43:44Z</time></trkpt>
<trkpt lat="46.25971296" lon="7.02957496"><ele>491.9999998944</ele><time>2011-04-13T15:43:45Z</time></trkpt>
<trkpt lat="46.25983793" lon="7.02945895"><ele>493.2000121248</ele><time>2011-04-13T15:43:48Z</time></trkpt>
<trkpt lat="46.26000297" lon="7.02930297"><ele>494.2000121568</ele><time>2011-04-13T15:43:52Z</time></trkpt>
<trkpt lat="46.26031595" lon="7.02905796"><ele>499.2000123168</ele><time>2011-04-13T15:43:58Z</time></trkpt>
<trkpt lat="46.26059893" lon="7.02880500"><ele>506.3999939544</ele><time>2011-04-13T15:44:05Z</time></trkpt>
<trkpt lat="46.26059700" lon="7.02881698"><ele>506.0000000376</ele><time>2011-04-13T15:44:06Z</time></trkpt>
<trkpt lat="46.26052894" lon="7.02894095"><ele>501.9999999096</ele><time>2011-04-13T15:44:11Z</time></trkpt>
<trkpt lat="46.26057797" lon="7.02892696"><ele>502.200012108</ele><time>2011-04-13T15:44:13Z</time></trkpt>
<trkpt lat="46.26083295" lon="7.02884397"><ele>503.20001214</ele><time>2011-04-13T15:44:20Z</time></trkpt>
<trkpt lat="46.26095893" lon="7.02883693"><ele>504.200012172</ele><time>2011-04-13T15:44:25Z</time></trkpt>
<trkpt lat="46.26118499" lon="7.02884800"><ele>505.3999939224</ele><time>2011-04-13T15:44:32Z</time></trkpt>
<trkpt lat="46.26137299" lon="7.02879092"><ele>507.7999879032</ele><time>2011-04-13T15:44:39Z</time></trkpt>
<trkpt lat="46.26143192" lon="7.02876795"><ele>508.6000062168</ele><time>2011-04-13T15:44:45Z</time></trkpt>
<trkpt lat="46.26153099" lon="7.02873794"><ele>509.6000062488</ele><time>2011-04-13T15:44:52Z</time></trkpt>
<trkpt lat="46.26161397" lon="7.02871799"><ele>510.2000120592</ele><time>2011-04-13T15:44:57Z</time></trkpt>
<trkpt lat="46.26165295" lon="7.02872395"><ele>510.2000120592</ele><time>2011-04-13T15:44:59Z</time></trkpt>
<trkpt lat="46.26172998" lon="7.02876896"><ele>510.3999937776</ele><time>2011-04-13T15:45:04Z</time></trkpt>
<trkpt lat="46.26187197" lon="7.02885697"><ele>510.9999998928</ele><time>2011-04-13T15:45:12Z</time></trkpt>
<trkpt lat="46.26196593" lon="7.02904397"><ele>509.6000062488</ele><time>2011-04-13T15:45:20Z</time></trkpt>
<trkpt lat="46.26208093" lon="7.02909996"><ele>510.2000120592</ele><time>2011-04-13T15:45:26Z</time></trkpt>
<trkpt lat="46.26219392" lon="7.02914799"><ele>510.7999876944</ele><time>2011-04-13T15:45:33Z</time></trkpt>
<trkpt lat="46.26235393" lon="7.02915494"><ele>512.4000243216</ele><time>2011-04-13T15:45:41Z</time></trkpt>
<trkpt lat="46.26252199" lon="7.02916492"><ele>513.9999999888</ele><time>2011-04-13T15:45:49Z</time></trkpt>
<trkpt lat="46.26267496" lon="7.02916299"><ele>514.7999878224</ele><time>2011-04-13T15:45:55Z</time></trkpt>
<trkpt lat="46.26284000" lon="7.02913499"><ele>516.0000000528</ele><time>2011-04-13T15:46:03Z</time></trkpt>
<trkpt lat="46.26287696" lon="7.02911194"><ele>516.4000244496</ele><time>2011-04-13T15:46:05Z</time></trkpt>
<trkpt lat="46.26290194" lon="7.02906693"><ele>517.0000000848</ele><time>2011-04-13T15:46:08Z</time></trkpt>
<trkpt lat="46.26285500" lon="7.02892897"><ele>518.4000245136</ele><time>2011-04-13T15:46:14Z</time></trkpt>
<trkpt lat="46.26281996" lon="7.02889997"><ele>518.7999876456</ele><time>2011-04-13T15:46:16Z</time></trkpt>
<trkpt lat="46.26266297" lon="7.02885998"><ele>518.5999754472</ele><time>2011-04-13T15:46:24Z</time></trkpt>
<trkpt lat="46.26252894" lon="7.02883895"><ele>518.4000245136</ele><time>2011-04-13T15:46:30Z</time></trkpt>
<trkpt lat="46.26237899" lon="7.02878798"><ele>517.59997572</ele><time>2011-04-13T15:46:37Z</time></trkpt>
<trkpt lat="46.26223792" lon="7.02871598"><ele>516.7999878864</ele><time>2011-04-13T15:46:44Z</time></trkpt>
<trkpt lat="46.26213692" lon="7.02863694"><ele>516.599975688</ele><time>2011-04-13T15:46:50Z</time></trkpt>
<trkpt lat="46.26202393" lon="7.02856394"><ele>516.4000244496</ele><time>2011-04-13T15:46:55Z</time></trkpt>
<trkpt lat="46.26187599" lon="7.02842496"><ele>516.2000122512</ele><time>2011-04-13T15:47:03Z</time></trkpt>
<trkpt lat="46.26179494" lon="7.02839496"><ele>515.599975656</ele><time>2011-04-13T15:47:10Z</time></trkpt>
<trkpt lat="46.26176694" lon="7.02835397"><ele>515.7999878544</ele><time>2011-04-13T15:47:16Z</time></trkpt>
<trkpt lat="46.26182092" lon="7.02824299"><ele>518.7999876456</ele><time>2011-04-13T15:47:21Z</time></trkpt>
<trkpt lat="46.26184992" lon="7.02824492"><ele>519.0000001488</ele><time>2011-04-13T15:47:22Z</time></trkpt>
<trkpt lat="46.26201195" lon="7.02828700"><ele>519.999999876</ele><time>2011-04-13T15:47:30Z</time></trkpt>
<trkpt lat="46.26205998" lon="7.02827593"><ele>520.5999755112</ele><time>2011-04-13T15:47:36Z</time></trkpt>
<trkpt lat="46.26209593" lon="7.02823293"><ele>521.7999877416</ele><time>2011-04-13T15:47:42Z</time></trkpt>
<trkpt lat="46.26217095" lon="7.02816999"><ele>523.5999756072</ele><time>2011-04-13T15:47:48Z</time></trkpt>
<trkpt lat="46.26229995" lon="7.02813998"><ele>525.2000122344</ele><time>2011-04-13T15:47:54Z</time></trkpt>
<trkpt lat="46.26249500" lon="7.02807896"><ele>527.5999757352</ele><time>2011-04-13T15:48:02Z</time></trkpt>
<trkpt lat="46.26268200" lon="7.02797293"><ele>528.5999754624</ele><time>2011-04-13T15:48:10Z</time></trkpt>
<trkpt lat="46.26284595" lon="7.02782993"><ele>529.5999754944</ele><time>2011-04-13T15:48:17Z</time></trkpt>
<trkpt lat="46.26295298" lon="7.02769398"><ele>530.400024288</ele><time>2011-04-13T15:48:22Z</time></trkpt>
<trkpt lat="46.26304996" lon="7.02750597"><ele>531.2000121216</ele><time>2011-04-13T15:48:28Z</time></trkpt>
<trkpt lat="46.26320796" lon="7.02725795"><ele>531.40002432</ele><time>2011-04-13T15:48:34Z</time></trkpt>
<trkpt lat="46.26341198" lon="7.02687993"><ele>531.9999999552</ele><time>2011-04-13T15:48:41Z</time></trkpt>
<trkpt lat="46.26366000" lon="7.02666493"><ele>532.2000121536</ele><time>2011-04-13T15:48:46Z</time></trkpt>
<trkpt lat="46.26391196" lon="7.02665496"><ele>531.5999755584</ele><time>2011-04-13T15:48:50Z</time></trkpt>
<trkpt lat="46.26414992" lon="7.02669594"><ele>530.9999999232</ele><time>2011-04-13T15:48:53Z</time></trkpt>
<trkpt lat="46.26457798" lon="7.02666895"><ele>529.9999998912</ele><time>2011-04-13T15:48:58Z</time></trkpt>
<trkpt lat="46.26466398" lon="7.02665797"><ele>529.5999754944</ele><time>2011-04-13T15:48:59Z</time></trkpt>
<trkpt lat="46.26503999" lon="7.02676493"><ele>529.5999754944</ele><time>2011-04-13T15:49:04Z</time></trkpt>
<trkpt lat="46.26520394" lon="7.02685093"><ele>532.400024352</ele><time>2011-04-13T15:49:07Z</time></trkpt>
<trkpt lat="46.26541399" lon="7.02684799"><ele>535.7999878848</ele><time>2011-04-13T15:49:12Z</time></trkpt>
<trkpt lat="46.26552799" lon="7.02670399"><ele>537.2000123136</ele><time>2011-04-13T15:49:17Z</time></trkpt>
<trkpt lat="46.26554098" lon="7.02667298"><ele>537.400024512</ele><time>2011-04-13T15:49:18Z</time></trkpt>
<trkpt lat="46.26563092" lon="7.02634097"><ele>535.7999878848</ele><time>2011-04-13T15:49:28Z</time></trkpt>
<trkpt lat="46.26569697" lon="7.02609899"><ele>534.5999756544</ele><time>2011-04-13T15:49:35Z</time></trkpt>
<trkpt lat="46.26578297" lon="7.02578592"><ele>532.7999877888</ele><time>2011-04-13T15:49:44Z</time></trkpt>
<trkpt lat="46.26587894" lon="7.02539499"><ele>531.40002432</ele><time>2011-04-13T15:49:55Z</time></trkpt>
<trkpt lat="46.26594197" lon="7.02513993"><ele>530.5999755264</ele><time>2011-04-13T15:50:02Z</time></trkpt>
<trkpt lat="46.26599193" lon="7.02491697"><ele>529.7999876928</ele><time>2011-04-13T15:50:08Z</time></trkpt>
<trkpt lat="46.26604792" lon="7.02471899"><ele>529.4000245608</ele><time>2011-04-13T15:50:14Z</time></trkpt>
<trkpt lat="46.26615395" lon="7.02455697"><ele>530.2000120896</ele><time>2011-04-13T15:50:18Z</time></trkpt>
<trkpt lat="46.26621698" lon="7.02445999"><ele>530.5999755264</ele><time>2011-04-13T15:50:20Z</time></trkpt>
<trkpt lat="46.26634095" lon="7.02424692"><ele>530.7999877248</ele><time>2011-04-13T15:50:25Z</time></trkpt>
<trkpt lat="46.26642896" lon="7.02404500"><ele>529.9999998912</ele><time>2011-04-13T15:50:31Z</time></trkpt>
<trkpt lat="46.26650699" lon="7.02388398"><ele>529.4000245608</ele><time>2011-04-13T15:50:34Z</time></trkpt>
<trkpt lat="46.26655896" lon="7.02353798"><ele>526.2000122664</ele><time>2011-04-13T15:50:38Z</time></trkpt>
<trkpt lat="46.26657992" lon="7.02320396"><ele>521.99999994</ele><time>2011-04-13T15:50:44Z</time></trkpt>
<trkpt lat="46.26661998" lon="7.02297698"><ele>519.4000245456</ele><time>2011-04-13T15:50:50Z</time></trkpt>
<trkpt lat="46.26667497" lon="7.02282694"><ele>518.2000123152</ele><time>2011-04-13T15:50:53Z</time></trkpt>
<trkpt lat="46.26688795" lon="7.02265092"><ele>519.0000001488</ele><time>2011-04-13T15:50:57Z</time></trkpt>
<trkpt lat="46.26704193" lon="7.02261094"><ele>521.2000121064</ele><time>2011-04-13T15:51:01Z</time></trkpt>
<trkpt lat="46.26708199" lon="7.02266299"><ele>522.5999755752</ele><time>2011-04-13T15:51:05Z</time></trkpt>
<trkpt lat="46.26706699" lon="7.02276592"><ele>523.7999878056</ele><time>2011-04-13T15:51:09Z</time></trkpt>
<trkpt lat="46.26702894" lon="7.02297798"><ele>526.2000122664</ele><time>2011-04-13T15:51:17Z</time></trkpt>
<trkpt lat="46.26692592" lon="7.02319893"><ele>527.5999757352</ele><time>2011-04-13T15:51:28Z</time></trkpt>
<trkpt lat="46.26691192" lon="7.02334695"><ele>529.5999754944</ele><time>2011-04-13T15:51:35Z</time></trkpt>
<trkpt lat="46.26689197" lon="7.02353194"><ele>531.5999755584</ele><time>2011-04-13T15:51:43Z</time></trkpt>
<trkpt lat="46.26691000" lon="7.02371400"><ele>534.2000122176</ele><time>2011-04-13T15:51:50Z</time></trkpt>
<trkpt lat="46.26692592" lon="7.02392296"><ele>537.0000001152</ele><time>2011-04-13T15:51:59Z</time></trkpt>
<trkpt lat="46.26695895" lon="7.02408800"><ele>539.4000242712</ele><time>2011-04-13T15:52:06Z</time></trkpt>
<trkpt lat="46.26704696" lon="7.02427693"><ele>543.2000122008</ele><time>2011-04-13T15:52:15Z</time></trkpt>
<trkpt lat="46.26714393" lon="7.02442897"><ele>546.4000244952</ele><time>2011-04-13T15:52:24Z</time></trkpt>
<trkpt lat="46.26725500" lon="7.02444792"><ele>548.4000245592</ele><time>2011-04-13T15:52:31Z</time></trkpt>
<trkpt lat="46.26740092" lon="7.02443300"><ele>550.5999755568</ele><time>2011-04-13T15:52:40Z</time></trkpt>
<trkpt lat="46.26742993" lon="7.02444599"><ele>551.200012152</ele><time>2011-04-13T15:52:42Z</time></trkpt>
<trkpt lat="46.26754493" lon="7.02443199"><ele>553.7999878512</ele><time>2011-04-13T15:52:49Z</time></trkpt>
<trkpt lat="46.26768993" lon="7.02432294"><ele>558.2000120712</ele><time>2011-04-13T15:52:55Z</time></trkpt>
<trkpt lat="46.26780795" lon="7.02416293"><ele>560.9999999688</ele><time>2011-04-13T15:53:00Z</time></trkpt>
<trkpt lat="46.26786796" lon="7.02404500"><ele>562.0000000008</ele><time>2011-04-13T15:53:06Z</time></trkpt>
<trkpt lat="46.26793996" lon="7.02386697"><ele>562.599975636</ele><time>2011-04-13T15:53:14Z</time></trkpt>
<trkpt lat="46.26800392" lon="7.02368198"><ele>562.7999878344</ele><time>2011-04-13T15:53:21Z</time></trkpt>
<trkpt lat="46.26808992" lon="7.02344595"><ele>563.4000244296</ele><time>2011-04-13T15:53:30Z</time></trkpt>
<trkpt lat="46.26815798" lon="7.02322793"><ele>562.7999878344</ele><time>2011-04-13T15:53:38Z</time></trkpt>
<trkpt lat="46.26823794" lon="7.02298092"><ele>561.2000121672</ele><time>2011-04-13T15:53:46Z</time></trkpt>
<trkpt lat="46.26834498" lon="7.02268093"><ele>559.2000121032</ele><time>2011-04-13T15:53:54Z</time></trkpt>
<trkpt lat="46.26848093" lon="7.02229997"><ele>559.7999877384</ele><time>2011-04-13T15:54:04Z</time></trkpt>
<trkpt lat="46.26856400" lon="7.02200694"><ele>558.7999877064</ele><time>2011-04-13T15:54:12Z</time></trkpt>
<trkpt lat="46.26862493" lon="7.02168893"><ele>555.5999757168</ele><time>2011-04-13T15:54:20Z</time></trkpt>
<trkpt lat="46.26870397" lon="7.02130898"><ele>551.200012152</ele><time>2011-04-13T15:54:29Z</time></trkpt>
<trkpt lat="46.26878494" lon="7.02101695"><ele>547.9999998576</ele><time>2011-04-13T15:54:37Z</time></trkpt>
<trkpt lat="46.26887396" lon="7.02090799"><ele>548.7999876912</ele><time>2011-04-13T15:54:41Z</time></trkpt>
<trkpt lat="46.26901897" lon="7.02077296"><ele>550.5999755568</ele><time>2011-04-13T15:54:47Z</time></trkpt>
<trkpt lat="46.26913195" lon="7.02060398"><ele>549.4000242864</ele><time>2011-04-13T15:54:54Z</time></trkpt>
<trkpt lat="46.26934494" lon="7.02052896"><ele>549.200012088</ele><time>2011-04-13T15:54:58Z</time></trkpt>
<trkpt lat="46.26945793" lon="7.02052192"><ele>549.5999755248</ele><time>2011-04-13T15:55:00Z</time></trkpt>
<trkpt lat="46.26965700" lon="7.02043793"><ele>548.4000245592</ele><time>2011-04-13T15:55:05Z</time></trkpt>
<trkpt lat="46.26983696" lon="7.02039099"><ele>547.9999998576</ele><time>2011-04-13T15:55:11Z</time></trkpt>
<trkpt lat="46.27009596" lon="7.02048797"><ele>551.7999877872</ele><time>2011-04-13T15:55:16Z</time></trkpt>
<trkpt lat="46.27034297" lon="7.02060498"><ele>554.7999878832</ele><time>2011-04-13T15:55:21Z</time></trkpt>
<trkpt lat="46.27054196" lon="7.02069299"><ele>556.7999876424</ele><time>2011-04-13T15:55:28Z</time></trkpt>
<trkpt lat="46.27067992" lon="7.02084697"><ele>560.7999877704</ele><time>2011-04-13T15:55:34Z</time></trkpt>
<trkpt lat="46.27086500" lon="7.02097697"><ele>564.5999757</ele><time>2011-04-13T15:55:41Z</time></trkpt>
<trkpt lat="46.27115099" lon="7.02097697"><ele>565.7999879304</ele><time>2011-04-13T15:55:49Z</time></trkpt>
<trkpt lat="46.27138593" lon="7.02091293"><ele>564.7999878984</ele><time>2011-04-13T15:55:56Z</time></trkpt>
<trkpt lat="46.27160696" lon="7.02083096"><ele>563.599975668</ele><time>2011-04-13T15:56:04Z</time></trkpt>
<trkpt lat="46.27174292" lon="7.02074194"><ele>563.2000122312</ele><time>2011-04-13T15:56:10Z</time></trkpt>
<trkpt lat="46.27183897" lon="7.02064094"><ele>562.2000121992</ele><time>2011-04-13T15:56:15Z</time></trkpt>
<trkpt lat="46.27186093" lon="7.02062795"><ele>562.2000121992</ele><time>2011-04-13T15:56:16Z</time></trkpt>
<trkpt lat="46.27195699" lon="7.02047397"><ele>559.4000243016</ele><time>2011-04-13T15:56:21Z</time></trkpt>
<trkpt lat="46.27211893" lon="7.02033492"><ele>557.200012344</ele><time>2011-04-13T15:56:29Z</time></trkpt>
<trkpt lat="46.27213796" lon="7.02031899"><ele>557.0000001456</ele><time>2011-04-13T15:56:33Z</time></trkpt>
<trkpt lat="46.27236393" lon="7.02050298"><ele>564.4000244616</ele><time>2011-04-13T15:58:32Z</time></trkpt>
<trkpt lat="46.27247600" lon="7.02057799"><ele>567.999999888</ele><time>2011-04-13T15:58:38Z</time></trkpt>
<trkpt lat="46.27253794" lon="7.02065594"><ele>569.999999952</ele><time>2011-04-13T15:58:43Z</time></trkpt>
<trkpt lat="46.27259997" lon="7.02072694"><ele>570.7999877856</ele><time>2011-04-13T15:58:48Z</time></trkpt>
<trkpt lat="46.27266300" lon="7.02083599"><ele>572.5999756512</ele><time>2011-04-13T15:58:55Z</time></trkpt>
<trkpt lat="46.27269393" lon="7.02096096"><ele>575.2000123104</ele><time>2011-04-13T15:59:01Z</time></trkpt>
<trkpt lat="46.27271597" lon="7.02105098"><ele>577.2000120696</ele><time>2011-04-13T15:59:08Z</time></trkpt>
<trkpt lat="46.27275696" lon="7.02115794"><ele>579.400024332</ele><time>2011-04-13T15:59:15Z</time></trkpt>
<trkpt lat="46.27276895" lon="7.02118300"><ele>579.7999877688</ele><time>2011-04-13T15:59:17Z</time></trkpt>
<trkpt lat="46.27284698" lon="7.02125098"><ele>580.2000121656</ele><time>2011-04-13T15:59:24Z</time></trkpt>
<trkpt lat="46.27286199" lon="7.02126196"><ele>580.400024364</ele><time>2011-04-13T15:59:25Z</time></trkpt>
<trkpt lat="46.27292393" lon="7.02134795"><ele>581.7999878328</ele><time>2011-04-13T15:59:29Z</time></trkpt>
<trkpt lat="46.27304798" lon="7.02147192"><ele>583.7999878968</ele><time>2011-04-13T15:59:35Z</time></trkpt>
<trkpt lat="46.27317396" lon="7.02154200"><ele>584.400024492</ele><time>2011-04-13T15:59:41Z</time></trkpt>
<trkpt lat="46.27331494" lon="7.02166999"><ele>587.2000120848</ele><time>2011-04-13T15:59:47Z</time></trkpt>
<trkpt lat="46.27348493" lon="7.02183494"><ele>588.799987752</ele><time>2011-04-13T15:59:56Z</time></trkpt>
<trkpt lat="46.27362692" lon="7.02186897"><ele>584.7999879288</ele><time>2011-04-13T16:00:02Z</time></trkpt>
<trkpt lat="46.27375298" lon="7.02195992"><ele>584.400024492</ele><time>2011-04-13T16:00:07Z</time></trkpt>
<trkpt lat="46.27389195" lon="7.02204893"><ele>583.40002446</ele><time>2011-04-13T16:00:12Z</time></trkpt>
<trkpt lat="46.27396496" lon="7.02213493"><ele>585.0000001272</ele><time>2011-04-13T16:00:17Z</time></trkpt>
<trkpt lat="46.27400796" lon="7.02217894"><ele>585.5999754576</ele><time>2011-04-13T16:00:20Z</time></trkpt>
<trkpt lat="46.27404098" lon="7.02222697"><ele>586.799987688</ele><time>2011-04-13T16:00:25Z</time></trkpt>
<trkpt lat="46.27402699" lon="7.02225798"><ele>588.799987752</ele><time>2011-04-13T16:00:29Z</time></trkpt>
<trkpt lat="46.27401793" lon="7.02226594"><ele>589.4000243472</ele><time>2011-04-13T16:00:33Z</time></trkpt>
<trkpt lat="46.27406194" lon="7.02228296"><ele>588.799987752</ele><time>2011-04-13T16:00:41Z</time></trkpt>
<trkpt lat="46.27411198" lon="7.02231095"><ele>588.4000243152</ele><time>2011-04-13T16:00:48Z</time></trkpt>
<trkpt lat="46.27413997" lon="7.02233492"><ele>588.5999755536</ele><time>2011-04-13T16:00:52Z</time></trkpt>
<trkpt lat="46.27424994" lon="7.02246392"><ele>589.9999999824</ele><time>2011-04-13T16:01:01Z</time></trkpt>
<trkpt lat="46.27432697" lon="7.02258093"><ele>591.2000122128</ele><time>2011-04-13T16:01:08Z</time></trkpt>
<trkpt lat="46.27438397" lon="7.02269593"><ele>593.0000000784</ele><time>2011-04-13T16:01:14Z</time></trkpt>
<trkpt lat="46.27444893" lon="7.02283893"><ele>595.0000001424</ele><time>2011-04-13T16:01:21Z</time></trkpt>
<trkpt lat="46.27453694" lon="7.02302392"><ele>597.2000121</ele><time>2011-04-13T16:01:27Z</time></trkpt>
<trkpt lat="46.27458497" lon="7.02309399"><ele>596.7999877032</ele><time>2011-04-13T16:01:31Z</time></trkpt>
<trkpt lat="46.27461196" lon="7.02312693"><ele>596.4000242664</ele><time>2011-04-13T16:01:33Z</time></trkpt>
<trkpt lat="46.27465295" lon="7.02322299"><ele>597.4000242984</ele><time>2011-04-13T16:01:40Z</time></trkpt>
<trkpt lat="46.27466292" lon="7.02323799"><ele>597.4000242984</ele><time>2011-04-13T16:01:42Z</time></trkpt>
<trkpt lat="46.27468396" lon="7.02326699"><ele>596.9999999016</ele><time>2011-04-13T16:01:45Z</time></trkpt>
<trkpt lat="46.27473199" lon="7.02337998"><ele>597.9999999336</ele><time>2011-04-13T16:01:54Z</time></trkpt>
<trkpt lat="46.27474599" lon="7.02343899"><ele>599.4000243624</ele><time>2011-04-13T16:02:00Z</time></trkpt>
<trkpt lat="46.27475395" lon="7.02350495"><ele>601.4000244264</ele><time>2011-04-13T16:02:06Z</time></trkpt>
<trkpt lat="46.27479795" lon="7.02358198"><ele>601.7999878632</ele><time>2011-04-13T16:02:11Z</time></trkpt>
<trkpt lat="46.27483492" lon="7.02363697"><ele>602.0000000616</ele><time>2011-04-13T16:02:14Z</time></trkpt>
<trkpt lat="46.27491999" lon="7.02382095"><ele>605.599975488</ele><time>2011-04-13T16:02:19Z</time></trkpt>
<trkpt lat="46.27503499" lon="7.02399295"><ele>607.9999999488</ele><time>2011-04-13T16:02:23Z</time></trkpt>
<trkpt lat="46.27513398" lon="7.02412396"><ele>608.2000121472</ele><time>2011-04-13T16:02:27Z</time></trkpt>
<trkpt lat="46.27524597" lon="7.02424994"><ele>605.4000245544</ele><time>2011-04-13T16:02:31Z</time></trkpt>
<trkpt lat="46.27532593" lon="7.02428196"><ele>601.5999756648</ele><time>2011-04-13T16:02:33Z</time></trkpt>
<trkpt lat="46.27558099" lon="7.02445496"><ele>591.799987848</ele><time>2011-04-13T16:02:38Z</time></trkpt>
<trkpt lat="46.27565199" lon="7.02471497"><ele>595.5999754728</ele><time>2011-04-13T16:02:43Z</time></trkpt>
<trkpt lat="46.27571996" lon="7.02487699"><ele>596.7999877032</ele><time>2011-04-13T16:02:47Z</time></trkpt>
<trkpt lat="46.27577495" lon="7.02507094"><ele>600.5999756328</ele><time>2011-04-13T16:02:51Z</time></trkpt>
<trkpt lat="46.27584594" lon="7.02527295"><ele>605.9999998848</ele><time>2011-04-13T16:02:55Z</time></trkpt>
<trkpt lat="46.27592700" lon="7.02551393"><ele>613.2000123072</ele><time>2011-04-13T16:03:00Z</time></trkpt>
<trkpt lat="46.27601098" lon="7.02567897"><ele>616.7999877336</ele><time>2011-04-13T16:03:04Z</time></trkpt>
<trkpt lat="46.27602699" lon="7.02572700"><ele>618.2000121624</ele><time>2011-04-13T16:03:05Z</time></trkpt>
<trkpt lat="46.27617200" lon="7.02574695"><ele>613.4000245056</ele><time>2011-04-13T16:03:09Z</time></trkpt>
<trkpt lat="46.27636696" lon="7.02568894"><ele>604.0000001256</ele><time>2011-04-13T16:03:14Z</time></trkpt>
<trkpt lat="46.27656796" lon="7.02572700"><ele>597.5999755368</ele><time>2011-04-13T16:03:18Z</time></trkpt>
<trkpt lat="46.27686200" lon="7.02572792"><ele>591.799987848</ele><time>2011-04-13T16:03:24Z</time></trkpt>
<trkpt lat="46.27703793" lon="7.02591198"><ele>594.4000245072</ele><time>2011-04-13T16:03:31Z</time></trkpt>
<trkpt lat="46.27718696" lon="7.02598399"><ele>594.0000001104</ele><time>2011-04-13T16:03:35Z</time></trkpt>
<trkpt lat="46.27734195" lon="7.02602598"><ele>592.4000244432</ele><time>2011-04-13T16:03:38Z</time></trkpt>
<trkpt lat="46.27747396" lon="7.02609295"><ele>591.4000244112</ele><time>2011-04-13T16:03:42Z</time></trkpt>
<trkpt lat="46.27753800" lon="7.02614693"><ele>592.2000122448</ele><time>2011-04-13T16:03:46Z</time></trkpt>
<trkpt lat="46.27751294" lon="7.02624994"><ele>594.0000001104</ele><time>2011-04-13T16:03:52Z</time></trkpt>
<trkpt lat="46.27755292" lon="7.02630593"><ele>595.0000001424</ele><time>2011-04-13T16:03:57Z</time></trkpt>
<trkpt lat="46.27762098" lon="7.02627693"><ele>594.5999754408</ele><time>2011-04-13T16:04:03Z</time></trkpt>
<trkpt lat="46.27760497" lon="7.02622497"><ele>593.799987912</ele><time>2011-04-13T16:04:07Z</time></trkpt>
<trkpt lat="46.27756096" lon="7.02626294"><ele>594.4000245072</ele><time>2011-04-13T16:04:10Z</time></trkpt>
<trkpt lat="46.27758896" lon="7.02629998"><ele>595.0000001424</ele><time>2011-04-13T16:04:13Z</time></trkpt>
<trkpt lat="46.27760899" lon="7.02623796"><ele>594.0000001104</ele><time>2011-04-13T16:04:17Z</time></trkpt>
<trkpt lat="46.27744898" lon="7.02606797"><ele>591.4000244112</ele><time>2011-04-13T16:04:25Z</time></trkpt>
<trkpt lat="46.27732895" lon="7.02591098"><ele>589.9999999824</ele><time>2011-04-13T16:04:30Z</time></trkpt>
<trkpt lat="46.27713592" lon="7.02564695"><ele>586.799987688</ele><time>2011-04-13T16:04:35Z</time></trkpt>
<trkpt lat="46.27693995" lon="7.02553798"><ele>586.400024556</ele><time>2011-04-13T16:04:39Z</time></trkpt>
<trkpt lat="46.27687600" lon="7.02553497"><ele>586.799987688</ele><time>2011-04-13T16:04:40Z</time></trkpt>
<trkpt lat="46.27646394" lon="7.02549499"><ele>594.4000245072</ele><time>2011-04-13T16:04:46Z</time></trkpt>
<trkpt lat="46.27632095" lon="7.02549700"><ele>599.200012164</ele><time>2011-04-13T16:04:48Z</time></trkpt>
<trkpt lat="46.27610394" lon="7.02541100"><ele>603.4000244904</ele><time>2011-04-13T16:04:51Z</time></trkpt>
<trkpt lat="46.27596295" lon="7.02511193"><ele>595.9999998696</ele><time>2011-04-13T16:04:54Z</time></trkpt>
<trkpt lat="46.27589297" lon="7.02485000"><ele>588.9999999504</ele><time>2011-04-13T16:04:56Z</time></trkpt>
<trkpt lat="46.27581292" lon="7.02439394"><ele>577.2000120696</ele><time>2011-04-13T16:04:59Z</time></trkpt>
<trkpt lat="46.27556892" lon="7.02381399"><ele>574.7999879136</ele><time>2011-04-13T16:05:03Z</time></trkpt>
<trkpt lat="46.27537999" lon="7.02341896"><ele>570.4000243488</ele><time>2011-04-13T16:05:05Z</time></trkpt>
<trkpt lat="46.27501697" lon="7.02265796"><ele>558.599975508</ele><time>2011-04-13T16:05:09Z</time></trkpt>
<trkpt lat="46.27487599" lon="7.02243492"><ele>559.2000121032</ele><time>2011-04-13T16:05:11Z</time></trkpt>
<trkpt lat="46.27489594" lon="7.02220693"><ele>555.20001228</ele><time>2011-04-13T16:05:14Z</time></trkpt>
<trkpt lat="46.27496995" lon="7.02215295"><ele>551.9999999856</ele><time>2011-04-13T16:05:15Z</time></trkpt>
<trkpt lat="46.27506592" lon="7.02207592"><ele>551.9999999856</ele><time>2011-04-13T16:05:17Z</time></trkpt>
<trkpt lat="46.27503198" lon="7.02193494"><ele>550.20001212</ele><time>2011-04-13T16:05:21Z</time></trkpt>
<trkpt lat="46.27479795" lon="7.02156194"><ele>547.7999876592</ele><time>2011-04-13T16:05:26Z</time></trkpt>
<trkpt lat="46.27448992" lon="7.02103799"><ele>541.4000243352</ele><time>2011-04-13T16:05:31Z</time></trkpt>
<trkpt lat="46.27415196" lon="7.02044095"><ele>532.7999877888</ele><time>2011-04-13T16:05:36Z</time></trkpt>
<trkpt lat="46.27388994" lon="7.01996695"><ele>531.7999877568</ele><time>2011-04-13T16:05:40Z</time></trkpt>
<trkpt lat="46.27356699" lon="7.01939296"><ele>526.5999757032</ele><time>2011-04-13T16:05:45Z</time></trkpt>
<trkpt lat="46.27316600" lon="7.01866692"><ele>517.0000000848</ele><time>2011-04-13T16:05:51Z</time></trkpt>
<trkpt lat="46.27281295" lon="7.01800894"><ele>513.7999877904</ele><time>2011-04-13T16:05:56Z</time></trkpt>
<trkpt lat="46.27249494" lon="7.01738399"><ele>509.9999998608</ele><time>2011-04-13T16:06:01Z</time></trkpt>
<trkpt lat="46.27215900" lon="7.01672995"><ele>504.7999878072</ele><time>2011-04-13T16:06:06Z</time></trkpt>
<trkpt lat="46.27186697" lon="7.01606593"><ele>502.6000060248</ele><time>2011-04-13T16:06:11Z</time></trkpt>
<trkpt lat="46.27144000" lon="7.01490596"><ele>496.6000061376</ele><time>2011-04-13T16:06:19Z</time></trkpt>
<trkpt lat="46.27126196" lon="7.01422694"><ele>493.9999999584</ele><time>2011-04-13T16:06:24Z</time></trkpt>
<trkpt lat="46.27139297" lon="7.01387599"><ele>491.799987696</ele><time>2011-04-13T16:06:28Z</time></trkpt>
<trkpt lat="46.27146598" lon="7.01383199"><ele>491.3999937792</ele><time>2011-04-13T16:06:29Z</time></trkpt>
<trkpt lat="46.27194894" lon="7.01338498"><ele>488.6000061864</ele><time>2011-04-13T16:06:36Z</time></trkpt>
<trkpt lat="46.27208599" lon="7.01323997"><ele>487.7999878728</ele><time>2011-04-13T16:06:38Z</time></trkpt>
<trkpt lat="46.27243694" lon="7.01285499"><ele>485.6000060904</ele><time>2011-04-13T16:06:43Z</time></trkpt>
<trkpt lat="46.27266392" lon="7.01261099"><ele>484.39999386</ele><time>2011-04-13T16:06:46Z</time></trkpt>
<trkpt lat="46.27291094" lon="7.01213993"><ele>481.7999876808</ele><time>2011-04-13T16:06:50Z</time></trkpt>
<trkpt lat="46.27301395" lon="7.01168697"><ele>478.3999939728</ele><time>2011-04-13T16:06:53Z</time></trkpt>
<trkpt lat="46.27302099" lon="7.01105498"><ele>474.99999996</ele><time>2011-04-13T16:06:57Z</time></trkpt>
<trkpt lat="46.27298797" lon="7.01030597"><ele>471.999999864</ele><time>2011-04-13T16:07:02Z</time></trkpt>
<trkpt lat="46.27308000" lon="7.00975394"><ele>469.7999879064</ele><time>2011-04-13T16:07:06Z</time></trkpt>
<trkpt lat="46.27330497" lon="7.00931196"><ele>467.600006124</ele><time>2011-04-13T16:07:10Z</time></trkpt>
<trkpt lat="46.27348593" lon="7.00921892"><ele>467.3999939256</ele><time>2011-04-13T16:07:12Z</time></trkpt>
<trkpt lat="46.27358492" lon="7.00921599"><ele>467.3999939256</ele><time>2011-04-13T16:07:13Z</time></trkpt>
<trkpt lat="46.27396898" lon="7.00925496"><ele>468.0000000408</ele><time>2011-04-13T16:07:17Z</time></trkpt>
<trkpt lat="46.27430795" lon="7.00911792"><ele>468.2000122392</ele><time>2011-04-13T16:07:21Z</time></trkpt>
<trkpt lat="46.27437794" lon="7.00903594"><ele>468.0000000408</ele><time>2011-04-13T16:07:22Z</time></trkpt>
<trkpt lat="46.27463099" lon="7.00868893"><ele>467.0000000088</ele><time>2011-04-13T16:07:26Z</time></trkpt>
<trkpt lat="46.27493399" lon="7.00852700"><ele>467.0000000088</ele><time>2011-04-13T16:07:30Z</time></trkpt>
<trkpt lat="46.27501094" lon="7.00854099"><ele>467.600006124</ele><time>2011-04-13T16:07:31Z</time></trkpt>
<trkpt lat="46.27531696" lon="7.00863697"><ele>472.3999937808</ele><time>2011-04-13T16:07:36Z</time></trkpt>
<trkpt lat="46.27543800" lon="7.00865499"><ele>474.3999938448</ele><time>2011-04-13T16:07:40Z</time></trkpt>
<trkpt lat="46.27555995" lon="7.00861199"><ele>475.6000060752</ele><time>2011-04-13T16:07:47Z</time></trkpt>
<trkpt lat="46.27566397" lon="7.00854694"><ele>475.999999992</ele><time>2011-04-13T16:07:54Z</time></trkpt>
<trkpt lat="46.27583697" lon="7.00843999"><ele>476.6000061072</ele><time>2011-04-13T16:08:05Z</time></trkpt>
<trkpt lat="46.27598098" lon="7.00834293"><ele>477.7999878576</ele><time>2011-04-13T16:08:14Z</time></trkpt>
<trkpt lat="46.27616596" lon="7.00818292"><ele>479.2000122864</ele><time>2011-04-13T16:08:26Z</time></trkpt>
<trkpt lat="46.27625397" lon="7.00809793"><ele>479.6000062032</ele><time>2011-04-13T16:08:32Z</time></trkpt>
<trkpt lat="46.27638297" lon="7.00793297"><ele>479.2000122864</ele><time>2011-04-13T16:08:42Z</time></trkpt>
<trkpt lat="46.27650292" lon="7.00783297"><ele>479.3999940048</ele><time>2011-04-13T16:08:51Z</time></trkpt>
<trkpt lat="46.27664298" lon="7.00774798"><ele>480.00000012</ele><time>2011-04-13T16:09:01Z</time></trkpt>
<trkpt lat="46.27669595" lon="7.00772292"><ele>480.2000123184</ele><time>2011-04-13T16:09:05Z</time></trkpt>
<trkpt lat="46.27684297" lon="7.00775796"><ele>482.7999877128</ele><time>2011-04-13T16:09:15Z</time></trkpt>
<trkpt lat="46.27694498" lon="7.00780992"><ele>484.9999999752</ele><time>2011-04-13T16:09:22Z</time></trkpt>
<trkpt lat="46.27707599" lon="7.00786600"><ele>487.6000061544</ele><time>2011-04-13T16:09:31Z</time></trkpt>
<trkpt lat="46.27716400" lon="7.00789793"><ele>489.39999402</ele><time>2011-04-13T16:09:37Z</time></trkpt>
<trkpt lat="46.27729995" lon="7.00788293"><ele>490.799987664</ele><time>2011-04-13T16:09:46Z</time></trkpt>
<trkpt lat="46.27745896" lon="7.00788695"><ele>492.799987728</ele><time>2011-04-13T16:09:56Z</time></trkpt>
<trkpt lat="46.27758393" lon="7.00794596"><ele>494.9999999904</ele><time>2011-04-13T16:10:04Z</time></trkpt>
<trkpt lat="46.27771896" lon="7.00802400"><ele>497.2000122528</ele><time>2011-04-13T16:10:13Z</time></trkpt>
<trkpt lat="46.27784897" lon="7.00813397"><ele>499.7999876472</ele><time>2011-04-13T16:10:23Z</time></trkpt>
<trkpt lat="46.27786296" lon="7.00817395"><ele>500.3999937624</ele><time>2011-04-13T16:10:25Z</time></trkpt>
<trkpt lat="46.27781494" lon="7.00827395"><ele>501.9999999096</ele><time>2011-04-13T16:10:31Z</time></trkpt>
<trkpt lat="46.27777998" lon="7.00828493"><ele>501.9999999096</ele><time>2011-04-13T16:10:33Z</time></trkpt>
<trkpt lat="46.27763397" lon="7.00834997"><ele>502.7999877432</ele><time>2011-04-13T16:10:42Z</time></trkpt>
<trkpt lat="46.27755292" lon="7.00840294"><ele>503.3999938584</ele><time>2011-04-13T16:10:47Z</time></trkpt>
<trkpt lat="46.27742996" lon="7.00853596"><ele>504.7999878072</ele><time>2011-04-13T16:10:55Z</time></trkpt>
<trkpt lat="46.27730196" lon="7.00867594"><ele>505.7999878392</ele><time>2011-04-13T16:11:04Z</time></trkpt>
<trkpt lat="46.27716894" lon="7.00884693"><ele>507.3999939864</ele><time>2011-04-13T16:11:14Z</time></trkpt>
<trkpt lat="46.27703098" lon="7.00904399"><ele>509.3999937456</ele><time>2011-04-13T16:11:24Z</time></trkpt>
<trkpt lat="46.27693492" lon="7.00925094"><ele>512.4000243216</ele><time>2011-04-13T16:11:31Z</time></trkpt>
<trkpt lat="46.27681799" lon="7.00943794"><ele>515.0000000208</ele><time>2011-04-13T16:11:38Z</time></trkpt>
<trkpt lat="46.27668598" lon="7.00958697"><ele>515.7999878544</ele><time>2011-04-13T16:11:46Z</time></trkpt>
<trkpt lat="46.27659998" lon="7.00962796"><ele>514.7999878224</ele><time>2011-04-13T16:11:52Z</time></trkpt>
<trkpt lat="46.27649093" lon="7.00966895"><ele>512.7999877584</ele><time>2011-04-13T16:11:59Z</time></trkpt>
<trkpt lat="46.27641097" lon="7.00978093"><ele>513.2000121552</ele><time>2011-04-13T16:12:06Z</time></trkpt>
<trkpt lat="46.27635699" lon="7.00995997"><ele>515.4000244176</ele><time>2011-04-13T16:12:14Z</time></trkpt>
<trkpt lat="46.27631692" lon="7.01015392"><ele>518.5999754472</ele><time>2011-04-13T16:12:23Z</time></trkpt>
<trkpt lat="46.27624794" lon="7.01031796"><ele>520.5999755112</ele><time>2011-04-13T16:12:32Z</time></trkpt>
<trkpt lat="46.27617694" lon="7.01044000"><ele>521.7999877416</ele><time>2011-04-13T16:12:40Z</time></trkpt>
<trkpt lat="46.27608298" lon="7.01057796"><ele>522.999999972</ele><time>2011-04-13T16:12:50Z</time></trkpt>
<trkpt lat="46.27598592" lon="7.01070495"><ele>523.7999878056</ele><time>2011-04-13T16:13:00Z</time></trkpt>
<trkpt lat="46.27592700" lon="7.01077896"><ele>524.4000244008</ele><time>2011-04-13T16:13:06Z</time></trkpt>
<trkpt lat="46.27584192" lon="7.01089597"><ele>525.4000244328</ele><time>2011-04-13T16:13:15Z</time></trkpt>
<trkpt lat="46.27575894" lon="7.01101298"><ele>525.4000244328</ele><time>2011-04-13T16:13:24Z</time></trkpt>
<trkpt lat="46.27569398" lon="7.01113695"><ele>526.2000122664</ele><time>2011-04-13T16:13:32Z</time></trkpt>
<trkpt lat="46.27561100" lon="7.01127995"><ele>527.2000122984</ele><time>2011-04-13T16:13:42Z</time></trkpt>
<trkpt lat="46.27552894" lon="7.01142797"><ele>528.5999754624</ele><time>2011-04-13T16:13:52Z</time></trkpt>
<trkpt lat="46.27545199" lon="7.01157994"><ele>530.5999755264</ele><time>2011-04-13T16:14:01Z</time></trkpt>
<trkpt lat="46.27536298" lon="7.01177599"><ele>534.0000000192</ele><time>2011-04-13T16:14:12Z</time></trkpt>
<trkpt lat="46.27525100" lon="7.01199593"><ele>538.0000001472</ele><time>2011-04-13T16:14:24Z</time></trkpt>
<trkpt lat="46.27516592" lon="7.01214597"><ele>540.79998774</ele><time>2011-04-13T16:14:33Z</time></trkpt>
<trkpt lat="46.27507296" lon="7.01231897"><ele>544.0000000344</ele><time>2011-04-13T16:14:43Z</time></trkpt>
<trkpt lat="46.27499392" lon="7.01244797"><ele>546.0000000984</ele><time>2011-04-13T16:14:51Z</time></trkpt>
<trkpt lat="46.27489996" lon="7.01256598"><ele>545.5999757016</ele><time>2011-04-13T16:14:59Z</time></trkpt>
<trkpt lat="46.27480198" lon="7.01269398"><ele>545.4000244632</ele><time>2011-04-13T16:15:08Z</time></trkpt>
<trkpt lat="46.27470894" lon="7.01282599"><ele>545.5999757016</ele><time>2011-04-13T16:15:17Z</time></trkpt>
<trkpt lat="46.27459494" lon="7.01293194"><ele>544.0000000344</ele><time>2011-04-13T16:15:26Z</time></trkpt>
<trkpt lat="46.27450794" lon="7.01300696"><ele>542.799987804</ele><time>2011-04-13T16:15:33Z</time></trkpt>
<trkpt lat="46.27450492" lon="7.01312900"><ele>546.4000244952</ele><time>2011-04-13T16:15:39Z</time></trkpt>
<trkpt lat="46.27457994" lon="7.01319898"><ele>551.5999755888</ele><time>2011-04-13T16:15:45Z</time></trkpt>
<trkpt lat="46.27467692" lon="7.01314492"><ele>554.0000000496</ele><time>2011-04-13T16:15:52Z</time></trkpt>
<trkpt lat="46.27478295" lon="7.01302900"><ele>554.7999878832</ele><time>2011-04-13T16:16:01Z</time></trkpt>
<trkpt lat="46.27485897" lon="7.01298298"><ele>556.599975444</ele><time>2011-04-13T16:16:07Z</time></trkpt>
<trkpt lat="46.27497599" lon="7.01293294"><ele>559.7999877384</ele><time>2011-04-13T16:16:16Z</time></trkpt>
<trkpt lat="46.27508797" lon="7.01287192"><ele>560.599975572</ele><time>2011-04-13T16:16:25Z</time></trkpt>
<trkpt lat="46.27517698" lon="7.01283094"><ele>561.2000121672</ele><time>2011-04-13T16:16:33Z</time></trkpt>
<trkpt lat="46.27526600" lon="7.01279598"><ele>561.7999878024</ele><time>2011-04-13T16:16:40Z</time></trkpt>
<trkpt lat="46.27535292" lon="7.01276698"><ele>562.599975636</ele><time>2011-04-13T16:16:47Z</time></trkpt>
<trkpt lat="46.27547094" lon="7.01274192"><ele>564.2000122632</ele><time>2011-04-13T16:16:56Z</time></trkpt>
<trkpt lat="46.27557294" lon="7.01270898"><ele>565.2000122952</ele><time>2011-04-13T16:17:04Z</time></trkpt>
<trkpt lat="46.27568099" lon="7.01267092"><ele>566.2000123272</ele><time>2011-04-13T16:17:12Z</time></trkpt>
<trkpt lat="46.27574997" lon="7.01264494"><ele>566.999999856</ele><time>2011-04-13T16:17:17Z</time></trkpt>
<trkpt lat="46.27589397" lon="7.01259792"><ele>568.4000242848</ele><time>2011-04-13T16:17:27Z</time></trkpt>
<trkpt lat="46.27601492" lon="7.01257193"><ele>569.999999952</ele><time>2011-04-13T16:17:34Z</time></trkpt>
<trkpt lat="46.27615892" lon="7.01255995"><ele>572.2000122144</ele><time>2011-04-13T16:17:42Z</time></trkpt>
<trkpt lat="46.27631198" lon="7.01257093"><ele>575.2000123104</ele><time>2011-04-13T16:17:51Z</time></trkpt>
<trkpt lat="46.27638993" lon="7.01256498"><ele>576.4000245408</ele><time>2011-04-13T16:17:56Z</time></trkpt>
<trkpt lat="46.27646897" lon="7.01255199"><ele>577.400024268</ele><time>2011-04-13T16:18:01Z</time></trkpt>
<trkpt lat="46.27654600" lon="7.01264595"><ele>580.7999878008</ele><time>2011-04-13T16:18:08Z</time></trkpt>
<trkpt lat="46.27656595" lon="7.01270998"><ele>582.400024428</ele><time>2011-04-13T16:18:11Z</time></trkpt>
<trkpt lat="46.27662194" lon="7.01274695"><ele>584.2000122936</ele><time>2011-04-13T16:18:15Z</time></trkpt>
<trkpt lat="46.27666494" lon="7.01269297"><ele>583.7999878968</ele><time>2011-04-13T16:18:22Z</time></trkpt>
<trkpt lat="46.27679796" lon="7.01248996"><ele>583.2000122616</ele><time>2011-04-13T16:20:56Z</time></trkpt>
<trkpt lat="46.27682797" lon="7.01245895"><ele>583.2000122616</ele><time>2011-04-13T16:20:57Z</time></trkpt>
<trkpt lat="46.27709594" lon="7.01217698"><ele>583.0000000632</ele><time>2011-04-13T16:21:04Z</time></trkpt>
<trkpt lat="46.27712293" lon="7.01214395"><ele>583.0000000632</ele><time>2011-04-13T16:21:06Z</time></trkpt>
<trkpt lat="46.27719593" lon="7.01204798"><ele>582.400024428</ele><time>2011-04-13T16:21:10Z</time></trkpt>
<trkpt lat="46.27742996" lon="7.01172695"><ele>580.5999756024</ele><time>2011-04-13T16:21:17Z</time></trkpt>
<trkpt lat="46.27766197" lon="7.01152395"><ele>581.5999756344</ele><time>2011-04-13T16:21:23Z</time></trkpt>
<trkpt lat="46.27782893" lon="7.01140794"><ele>582.2000122296</ele><time>2011-04-13T16:21:27Z</time></trkpt>
<trkpt lat="46.27821299" lon="7.01115196"><ele>582.5999756664</ele><time>2011-04-13T16:21:35Z</time></trkpt>
<trkpt lat="46.27832296" lon="7.01104400"><ele>581.400024396</ele><time>2011-04-13T16:21:37Z</time></trkpt>
<trkpt lat="46.27854592" lon="7.01072498"><ele>576.7999876728</ele><time>2011-04-13T16:21:41Z</time></trkpt>
<trkpt lat="46.27884096" lon="7.01044293"><ele>574.5999757152</ele><time>2011-04-13T16:21:45Z</time></trkpt>
<trkpt lat="46.27940498" lon="7.01020497"><ele>572.7999878496</ele><time>2011-04-13T16:21:51Z</time></trkpt>
<trkpt lat="46.27970497" lon="7.01013397"><ele>571.7999878176</ele><time>2011-04-13T16:21:54Z</time></trkpt>
<trkpt lat="46.28014997" lon="7.00987900"><ele>567.4000245576</ele><time>2011-04-13T16:21:59Z</time></trkpt>
<trkpt lat="46.28041098" lon="7.00955998"><ele>564.7999878984</ele><time>2011-04-13T16:22:03Z</time></trkpt>
<trkpt lat="46.28082194" lon="7.00915094"><ele>565.4000244936</ele><time>2011-04-13T16:22:10Z</time></trkpt>
<trkpt lat="46.28115093" lon="7.00877292"><ele>567.7999876896</ele><time>2011-04-13T16:22:16Z</time></trkpt>
<trkpt lat="46.28121095" lon="7.00869698"><ele>568.2000120864</ele><time>2011-04-13T16:22:17Z</time></trkpt>
<trkpt lat="46.28137892" lon="7.00827898"><ele>566.999999856</ele><time>2011-04-13T16:22:21Z</time></trkpt>
<trkpt lat="46.28165192" lon="7.00779894"><ele>568.2000120864</ele><time>2011-04-13T16:22:26Z</time></trkpt>
<trkpt lat="46.28199893" lon="7.00727097"><ele>571.4000243808</ele><time>2011-04-13T16:22:32Z</time></trkpt>
<trkpt lat="46.28238492" lon="7.00663998"><ele>572.000000016</ele><time>2011-04-13T16:22:39Z</time></trkpt>
<trkpt lat="46.28279295" lon="7.00592592"><ele>568.5999755232</ele><time>2011-04-13T16:22:46Z</time></trkpt>
<trkpt lat="46.28321598" lon="7.00527498"><ele>566.7999876576</ele><time>2011-04-13T16:22:53Z</time></trkpt>
<trkpt lat="46.28349200" lon="7.00501892"><ele>567.5999754912</ele><time>2011-04-13T16:22:57Z</time></trkpt>
<trkpt lat="46.28390196" lon="7.00462095"><ele>574.7999879136</ele><time>2011-04-13T16:23:04Z</time></trkpt>
<trkpt lat="46.28426800" lon="7.00442992"><ele>579.5999755704</ele><time>2011-04-13T16:23:11Z</time></trkpt>
<trkpt lat="46.28443295" lon="7.00427796"><ele>578.4000243</ele><time>2011-04-13T16:23:15Z</time></trkpt>
<trkpt lat="46.28461492" lon="7.00412993"><ele>576.9999998712</ele><time>2011-04-13T16:23:19Z</time></trkpt>
<trkpt lat="46.28474995" lon="7.00402197"><ele>576.2000123424</ele><time>2011-04-13T16:23:22Z</time></trkpt>
<trkpt lat="46.28490695" lon="7.00399599"><ele>576.2000123424</ele><time>2011-04-13T16:23:25Z</time></trkpt>
<trkpt lat="46.28500996" lon="7.00402793"><ele>576.7999876728</ele><time>2011-04-13T16:23:27Z</time></trkpt>
<trkpt lat="46.28537793" lon="7.00423496"><ele>574.7999879136</ele><time>2011-04-13T16:23:34Z</time></trkpt>
<trkpt lat="46.28568697" lon="7.00432892"><ele>573.5999756832</ele><time>2011-04-13T16:23:39Z</time></trkpt>
<trkpt lat="46.28600799" lon="7.00437494"><ele>574.5999757152</ele><time>2011-04-13T16:23:44Z</time></trkpt>
<trkpt lat="46.28633397" lon="7.00437795"><ele>576.7999876728</ele><time>2011-04-13T16:23:49Z</time></trkpt>
<trkpt lat="46.28665793" lon="7.00436396"><ele>578.2000121016</ele><time>2011-04-13T16:23:54Z</time></trkpt>
<trkpt lat="46.28690695" lon="7.00434292"><ele>576.9999998712</ele><time>2011-04-13T16:23:59Z</time></trkpt>
<trkpt lat="46.28713192" lon="7.00436999"><ele>577.400024268</ele><time>2011-04-13T16:24:04Z</time></trkpt>
<trkpt lat="46.28739294" lon="7.00437192"><ele>576.7999876728</ele><time>2011-04-13T16:24:09Z</time></trkpt>
<trkpt lat="46.28764599" lon="7.00434292"><ele>574.7999879136</ele><time>2011-04-13T16:24:14Z</time></trkpt>
<trkpt lat="46.28776199" lon="7.00433797"><ele>574.00000008</ele><time>2011-04-13T16:24:16Z</time></trkpt>
<trkpt lat="46.28797699" lon="7.00443998"><ele>575.4000245088</ele><time>2011-04-13T16:24:20Z</time></trkpt>
<trkpt lat="46.28806592" lon="7.00453998"><ele>576.9999998712</ele><time>2011-04-13T16:24:22Z</time></trkpt>
<trkpt lat="46.28824999" lon="7.00485195"><ele>581.400024396</ele><time>2011-04-13T16:24:27Z</time></trkpt>
<trkpt lat="46.28843095" lon="7.00526199"><ele>586.799987688</ele><time>2011-04-13T16:24:33Z</time></trkpt>
<trkpt lat="46.28854092" lon="7.00557397"><ele>591.5999756496</ele><time>2011-04-13T16:24:37Z</time></trkpt>
<trkpt lat="46.28870496" lon="7.00571897"><ele>595.0000001424</ele><time>2011-04-13T16:24:41Z</time></trkpt>
<trkpt lat="46.28877595" lon="7.00555896"><ele>593.4000244752</ele><time>2011-04-13T16:24:44Z</time></trkpt>
<trkpt lat="46.28882096" lon="7.00541597"><ele>591.5999756496</ele><time>2011-04-13T16:24:46Z</time></trkpt>
<trkpt lat="46.28885600" lon="7.00509000"><ele>587.4000242832</ele><time>2011-04-13T16:24:50Z</time></trkpt>
<trkpt lat="46.28888793" lon="7.00464098"><ele>581.400024396</ele><time>2011-04-13T16:24:56Z</time></trkpt>
<trkpt lat="46.28882498" lon="7.00417293"><ele>574.4000244768</ele><time>2011-04-13T16:25:02Z</time></trkpt>
<trkpt lat="46.28893194" lon="7.00391695"><ele>571.2000121824</ele><time>2011-04-13T16:25:06Z</time></trkpt>
<trkpt lat="46.28898198" lon="7.00387294"><ele>570.999999984</ele><time>2011-04-13T16:25:07Z</time></trkpt>
<trkpt lat="46.28931893" lon="7.00362300"><ele>571.7999878176</ele><time>2011-04-13T16:25:14Z</time></trkpt>
<trkpt lat="46.28968899" lon="7.00334296"><ele>572.7999878496</ele><time>2011-04-13T16:25:21Z</time></trkpt>
<trkpt lat="46.28998093" lon="7.00311698"><ele>571.4000243808</ele><time>2011-04-13T16:25:26Z</time></trkpt>
<trkpt lat="46.29004095" lon="7.00307197"><ele>571.2000121824</ele><time>2011-04-13T16:25:27Z</time></trkpt>
<trkpt lat="46.29020498" lon="7.00292998"><ele>571.2000121824</ele><time>2011-04-13T16:25:30Z</time></trkpt>
<trkpt lat="46.29044898" lon="7.00271096"><ele>572.2000122144</ele><time>2011-04-13T16:25:35Z</time></trkpt>
<trkpt lat="46.29069298" lon="7.00249898"><ele>574.5999757152</ele><time>2011-04-13T16:25:40Z</time></trkpt>
<trkpt lat="46.29087595" lon="7.00234392"><ele>574.2000122784</ele><time>2011-04-13T16:25:44Z</time></trkpt>
<trkpt lat="46.29117996" lon="7.00208299"><ele>568.99999992</ele><time>2011-04-13T16:25:51Z</time></trkpt>
<trkpt lat="46.29140393" lon="7.00187797"><ele>565.4000244936</ele><time>2011-04-13T16:25:56Z</time></trkpt>
<trkpt lat="46.29178095" lon="7.00163598"><ele>563.0000000328</ele><time>2011-04-13T16:26:03Z</time></trkpt>
<trkpt lat="46.29213299" lon="7.00144697"><ele>560.2000121352</ele><time>2011-04-13T16:26:09Z</time></trkpt>
<trkpt lat="46.29226492" lon="7.00139592"><ele>559.59997554</ele><time>2011-04-13T16:26:11Z</time></trkpt>
<trkpt lat="46.29254395" lon="7.00137296"><ele>561.2000121672</ele><time>2011-04-13T16:26:15Z</time></trkpt>
<trkpt lat="46.29296992" lon="7.00147698"><ele>566.2000123272</ele><time>2011-04-13T16:26:22Z</time></trkpt>
<trkpt lat="46.29330897" lon="7.00157094"><ele>570.5999755872</ele><time>2011-04-13T16:26:29Z</time></trkpt>
<trkpt lat="46.29347694" lon="7.00159499"><ele>572.000000016</ele><time>2011-04-13T16:26:33Z</time></trkpt>
<trkpt lat="46.29364299" lon="7.00148293"><ele>568.7999877216</ele><time>2011-04-13T16:26:37Z</time></trkpt>
<trkpt lat="46.29389595" lon="7.00104095"><ele>555.5999757168</ele><time>2011-04-13T16:26:42Z</time></trkpt>
<trkpt lat="46.29413098" lon="7.00061196"><ele>546.5999757336</ele><time>2011-04-13T16:26:46Z</time></trkpt>
<trkpt lat="46.29433793" lon="7.00052999"><ele>546.5999757336</ele><time>2011-04-13T16:26:49Z</time></trkpt>
<trkpt lat="46.29443994" lon="7.00065195"><ele>549.5999755248</ele><time>2011-04-13T16:26:51Z</time></trkpt>
<trkpt lat="46.29456994" lon="7.00076099"><ele>552.5999756208</ele><time>2011-04-13T16:26:55Z</time></trkpt>
<trkpt lat="46.29473498" lon="7.00077399"><ele>554.0000000496</ele><time>2011-04-13T16:27:02Z</time></trkpt>
<trkpt lat="46.29486599" lon="7.00076695"><ele>554.7999878832</ele><time>2011-04-13T16:27:08Z</time></trkpt>
<trkpt lat="46.29509096" lon="7.00070894"><ele>557.0000001456</ele><time>2011-04-13T16:27:18Z</time></trkpt>
<trkpt lat="46.29527997" lon="7.00059797"><ele>559.4000243016</ele><time>2011-04-13T16:27:26Z</time></trkpt>
<trkpt lat="46.29547393" lon="7.00047894"><ele>560.599975572</ele><time>2011-04-13T16:27:35Z</time></trkpt>
<trkpt lat="46.29568499" lon="7.00037199"><ele>561.4000243656</ele><time>2011-04-13T16:27:45Z</time></trkpt>
<trkpt lat="46.29590199" lon="7.00033293"><ele>563.7999878664</ele><time>2011-04-13T16:27:55Z</time></trkpt>
<trkpt lat="46.29601498" lon="7.00034400"><ele>565.4000244936</ele><time>2011-04-13T16:28:01Z</time></trkpt>
<trkpt lat="46.29631396" lon="7.00043896"><ele>572.7999878496</ele><time>2011-04-13T16:28:17Z</time></trkpt>
<trkpt lat="46.29647892" lon="7.00034995"><ele>571.4000243808</ele><time>2011-04-13T16:28:22Z</time></trkpt>
<trkpt lat="46.29653893" lon="7.00032094"><ele>570.7999877856</ele><time>2011-04-13T16:28:23Z</time></trkpt>
<trkpt lat="46.29667799" lon="7.00025892"><ele>569.5999755552</ele><time>2011-04-13T16:28:25Z</time></trkpt>
<trkpt lat="46.29699793" lon="6.99996094"><ele>553.7999878512</ele><time>2011-04-13T16:28:30Z</time></trkpt>
<trkpt lat="46.29727394" lon="6.99968099"><ele>549.4000242864</ele><time>2011-04-13T16:28:36Z</time></trkpt>
<trkpt lat="46.29751895" lon="6.99970798"><ele>545.7999879</ele><time>2011-04-13T16:28:40Z</time></trkpt>
<trkpt lat="46.29765792" lon="6.99965199"><ele>545.0000000664</ele><time>2011-04-13T16:28:43Z</time></trkpt>
<trkpt lat="46.29774392" lon="6.99949197"><ele>533.2000121856</ele><time>2011-04-13T16:28:46Z</time></trkpt>
<trkpt lat="46.29775297" lon="6.99934797"><ele>530.2000120896</ele><time>2011-04-13T16:28:49Z</time></trkpt>
<trkpt lat="46.29770000" lon="6.99901496"><ele>523.4000243688</ele><time>2011-04-13T16:28:53Z</time></trkpt>
<trkpt lat="46.29763998" lon="6.99868295"><ele>517.7999879184</ele><time>2011-04-13T16:28:57Z</time></trkpt>
<trkpt lat="46.29771299" lon="6.99835899"><ele>514.7999878224</ele><time>2011-04-13T16:29:00Z</time></trkpt>
<trkpt lat="46.29779798" lon="6.99815196"><ele>513.7999877904</ele><time>2011-04-13T16:29:02Z</time></trkpt>
<trkpt lat="46.29791893" lon="6.99782297"><ele>511.2000120912</ele><time>2011-04-13T16:29:06Z</time></trkpt>
<trkpt lat="46.29792497" lon="6.99770294"><ele>509.6000062488</ele><time>2011-04-13T16:29:09Z</time></trkpt>
<trkpt lat="46.29792396" lon="6.99770294"><ele>509.6000062488</ele><time>2011-04-13T16:29:10Z</time></trkpt>
<trkpt lat="46.29785297" lon="6.99756799"><ele>506.6000061528</ele><time>2011-04-13T16:31:19Z</time></trkpt>
<trkpt lat="46.29783696" lon="6.99746498"><ele>505.200012204</ele><time>2011-04-13T16:31:21Z</time></trkpt>
<trkpt lat="46.29799395" lon="6.99716692"><ele>503.20001214</ele><time>2011-04-13T16:31:26Z</time></trkpt>
<trkpt lat="46.29806000" lon="6.99705594"><ele>502.3999938264</ele><time>2011-04-13T16:31:27Z</time></trkpt>
<trkpt lat="46.29812697" lon="6.99689794"><ele>500.9999998776</ele><time>2011-04-13T16:31:29Z</time></trkpt>
<trkpt lat="46.29804793" lon="6.99666794"><ele>497.6000061696</ele><time>2011-04-13T16:31:33Z</time></trkpt>
<trkpt lat="46.29798096" lon="6.99631892"><ele>494.799987792</ele><time>2011-04-13T16:31:37Z</time></trkpt>
<trkpt lat="46.29784995" lon="6.99597694"><ele>491.799987696</ele><time>2011-04-13T16:31:41Z</time></trkpt>
<trkpt lat="46.29778599" lon="6.99575700"><ele>490.0000001352</ele><time>2011-04-13T16:31:43Z</time></trkpt>
<trkpt lat="46.29775196" lon="6.99550495"><ele>489.0000001032</ele><time>2011-04-13T16:31:45Z</time></trkpt>
<trkpt lat="46.29774392" lon="6.99519600"><ele>488.0000000712</ele><time>2011-04-13T16:31:48Z</time></trkpt>
<trkpt lat="46.29770293" lon="6.99471496"><ele>485.2000121736</ele><time>2011-04-13T16:31:53Z</time></trkpt>
<trkpt lat="46.29762095" lon="6.99451799"><ele>483.6000060264</ele><time>2011-04-13T16:31:55Z</time></trkpt>
<trkpt lat="46.29769698" lon="6.99418900"><ele>481.399993764</ele><time>2011-04-13T16:31:59Z</time></trkpt>
<trkpt lat="46.29772497" lon="6.99409596"><ele>480.6000062352</ele><time>2011-04-13T16:32:00Z</time></trkpt>
<trkpt lat="46.29781399" lon="6.99386395"><ele>479.000000088</ele><time>2011-04-13T16:32:03Z</time></trkpt>
<trkpt lat="46.29785992" lon="6.99346597"><ele>475.999999992</ele><time>2011-04-13T16:32:08Z</time></trkpt>
<trkpt lat="46.29801298" lon="6.99292693"><ele>472.7999876976</ele><time>2011-04-13T16:32:13Z</time></trkpt>
<trkpt lat="46.29815295" lon="6.99251094"><ele>470.2000123032</ele><time>2011-04-13T16:32:17Z</time></trkpt>
<trkpt lat="46.29823392" lon="6.99226200"><ele>467.7999878424</ele><time>2011-04-13T16:32:19Z</time></trkpt>
<trkpt lat="46.29833300" lon="6.99164593"><ele>460.7999879232</ele><time>2011-04-13T16:32:23Z</time></trkpt>
<trkpt lat="46.29834993" lon="6.99124594"><ele>458.3999939424</ele><time>2011-04-13T16:32:26Z</time></trkpt>
<trkpt lat="46.29832193" lon="6.99102500"><ele>456.9999999936</ele><time>2011-04-13T16:32:30Z</time></trkpt>
<trkpt lat="46.29829193" lon="6.99096699"><ele>456.6000060768</ele><time>2011-04-13T16:32:31Z</time></trkpt>
<trkpt lat="46.29806494" lon="6.99035897"><ele>450.799987908</ele><time>2011-04-13T16:32:37Z</time></trkpt>
<trkpt lat="46.29798993" lon="6.99008698"><ele>448.2000122088</ele><time>2011-04-13T16:32:39Z</time></trkpt>
<trkpt lat="46.29792899" lon="6.98942397"><ele>443.6000059656</ele><time>2011-04-13T16:32:43Z</time></trkpt>
<trkpt lat="46.29791600" lon="6.98829694"><ele>436.2000121296</ele><time>2011-04-13T16:32:49Z</time></trkpt>
<trkpt lat="46.29785699" lon="6.98692700"><ele>427.6000060632</ele><time>2011-04-13T16:32:56Z</time></trkpt>
<trkpt lat="46.29770494" lon="6.98601698"><ele>423.3999940416</ele><time>2011-04-13T16:33:01Z</time></trkpt>
<trkpt lat="46.29763596" lon="6.98500494"><ele>420.0000000288</ele><time>2011-04-13T16:33:07Z</time></trkpt>
<trkpt lat="46.29763294" lon="6.98484996"><ele>419.600006112</ele><time>2011-04-13T16:33:08Z</time></trkpt>
<trkpt lat="46.29752993" lon="6.98416893"><ele>417.7999877664</ele><time>2011-04-13T16:33:13Z</time></trkpt>
<trkpt lat="46.29740696" lon="6.98360693"><ele>414.600005952</ele><time>2011-04-13T16:33:18Z</time></trkpt>
<trkpt lat="46.29724897" lon="6.98357600"><ele>414.3999937536</ele><time>2011-04-13T16:33:21Z</time></trkpt>
<trkpt lat="46.29714193" lon="6.98386794"><ele>415.3999937856</ele><time>2011-04-13T16:33:24Z</time></trkpt>
<trkpt lat="46.29708292" lon="6.98421797"><ele>416.3999938176</ele><time>2011-04-13T16:33:27Z</time></trkpt>
<trkpt lat="46.29691696" lon="6.98444998"><ele>416.2000120992</ele><time>2011-04-13T16:33:30Z</time></trkpt>
<trkpt lat="46.29618798" lon="6.98491693"><ele>412.7999879112</ele><time>2011-04-13T16:33:39Z</time></trkpt>
<trkpt lat="46.29553495" lon="6.98529898"><ele>409.20001218</ele><time>2011-04-13T16:33:46Z</time></trkpt>
<trkpt lat="46.29452099" lon="6.98580793"><ele>405.6000059688</ele><time>2011-04-13T16:33:56Z</time></trkpt>
<trkpt lat="46.29375497" lon="6.98613893"><ele>403.2000122928</ele><time>2011-04-13T16:34:04Z</time></trkpt>
<trkpt lat="46.29300797" lon="6.98637497"><ele>400.6000061136</ele><time>2011-04-13T16:34:12Z</time></trkpt>
<trkpt lat="46.29194498" lon="6.98662500"><ele>398.799987768</ele><time>2011-04-13T16:34:23Z</time></trkpt>
<trkpt lat="46.29120695" lon="6.98677495"><ele>397.9999999344</ele><time>2011-04-13T16:34:31Z</time></trkpt>
<trkpt lat="46.29063698" lon="6.98690093"><ele>397.799987736</ele><time>2011-04-13T16:34:38Z</time></trkpt>
<trkpt lat="46.29054696" lon="6.98668493"><ele>397.6000060176</ele><time>2011-04-13T16:34:41Z</time></trkpt>
<trkpt lat="46.29057395" lon="6.98660195"><ele>397.3999938192</ele><time>2011-04-13T16:34:42Z</time></trkpt>
<trkpt lat="46.29079993" lon="6.98586593"><ele>395.9999998704</ele><time>2011-04-13T16:34:50Z</time></trkpt>
<trkpt lat="46.29102993" lon="6.98502196"><ele>396.3999937872</ele><time>2011-04-13T16:34:59Z</time></trkpt>
<trkpt lat="46.29128692" lon="6.98406399"><ele>396.2000120688</ele><time>2011-04-13T16:35:09Z</time></trkpt>
<trkpt lat="46.29153393" lon="6.98315397"><ele>394.7999879448</ele><time>2011-04-13T16:35:19Z</time></trkpt>
<trkpt lat="46.29178497" lon="6.98213096"><ele>394.2000123096</ele><time>2011-04-13T16:35:31Z</time></trkpt>
<trkpt lat="46.29188295" lon="6.98141598"><ele>396.3999937872</ele><time>2011-04-13T16:35:40Z</time></trkpt>
<trkpt lat="46.29190693" lon="6.98109797"><ele>398.3999938512</ele><time>2011-04-13T16:35:44Z</time></trkpt>
<trkpt lat="46.29182294" lon="6.98073898"><ele>400.2000121968</ele><time>2011-04-13T16:35:49Z</time></trkpt>
<trkpt lat="46.29177894" lon="6.98069195"><ele>400.2000121968</ele><time>2011-04-13T16:35:50Z</time></trkpt>
<trkpt lat="46.29146797" lon="6.98040999"><ele>406.3999938024</ele><time>2011-04-13T16:35:58Z</time></trkpt>
<trkpt lat="46.29137199" lon="6.98025693"><ele>410.6000061288</ele><time>2011-04-13T16:36:03Z</time></trkpt>
<trkpt lat="46.29127099" lon="6.97999693"><ele>416.9999999328</ele><time>2011-04-13T16:36:12Z</time></trkpt>
<trkpt lat="46.29121492" lon="6.97979894"><ele>419.3999939136</ele><time>2011-04-13T16:36:19Z</time></trkpt>
<trkpt lat="46.29118399" lon="6.97948295"><ele>421.600006176</ele><time>2011-04-13T16:36:29Z</time></trkpt>
<trkpt lat="46.29115792" lon="6.97920693"><ele>423.2000123232</ele><time>2011-04-13T16:36:38Z</time></trkpt>
<trkpt lat="46.29110193" lon="6.97900694"><ele>423.2000123232</ele><time>2011-04-13T16:36:45Z</time></trkpt>
<trkpt lat="46.29101300" lon="6.97885397"><ele>423.3999940416</ele><time>2011-04-13T16:36:52Z</time></trkpt>
<trkpt lat="46.29093094" lon="6.97873796"><ele>423.60000624</ele><time>2011-04-13T16:36:57Z</time></trkpt>
<trkpt lat="46.29094494" lon="6.97864098"><ele>422.7999879264</ele><time>2011-04-13T16:37:01Z</time></trkpt>
<trkpt lat="46.29103697" lon="6.97854199"><ele>421.600006176</ele><time>2011-04-13T16:37:07Z</time></trkpt>
<trkpt lat="46.29117192" lon="6.97846999"><ele>420.3999939456</ele><time>2011-04-13T16:37:14Z</time></trkpt>
<trkpt lat="46.29128398" lon="6.97839799"><ele>419.3999939136</ele><time>2011-04-13T16:37:20Z</time></trkpt>
<trkpt lat="46.29143192" lon="6.97828894"><ele>417.9999999648</ele><time>2011-04-13T16:37:30Z</time></trkpt>
<trkpt lat="46.29155296" lon="6.97823899"><ele>416.9999999328</ele><time>2011-04-13T16:37:37Z</time></trkpt>
<trkpt lat="46.29166293" lon="6.97823295"><ele>416.3999938176</ele><time>2011-04-13T16:37:44Z</time></trkpt>
<trkpt lat="46.29173292" lon="6.97824796"><ele>417.3999938496</ele><time>2011-04-13T16:37:49Z</time></trkpt>
<trkpt lat="46.29183593" lon="6.97825399"><ele>418.9999999968</ele><time>2011-04-13T16:37:55Z</time></trkpt>
<trkpt lat="46.29191397" lon="6.97827796"><ele>420.2000122272</ele><time>2011-04-13T16:37:59Z</time></trkpt>
<trkpt lat="46.29202092" lon="6.97833094"><ele>422.0000000928</ele><time>2011-04-13T16:38:05Z</time></trkpt>
<trkpt lat="46.29214095" lon="6.97839095"><ele>423.60000624</ele><time>2011-04-13T16:38:11Z</time></trkpt>
<trkpt lat="46.29233197" lon="6.97846094"><ele>425.999999916</ele><time>2011-04-13T16:38:21Z</time></trkpt>
<trkpt lat="46.29246499" lon="6.97846396"><ele>427.7999877816</ele><time>2011-04-13T16:38:29Z</time></trkpt>
<trkpt lat="46.29253599" lon="6.97848198"><ele>428.3999938968</ele><time>2011-04-13T16:38:33Z</time></trkpt>
<trkpt lat="46.29262400" lon="6.97836597"><ele>429.3999939288</ele><time>2011-04-13T16:38:39Z</time></trkpt>
<trkpt lat="46.29263297" lon="6.97834192"><ele>429.3999939288</ele><time>2011-04-13T16:38:40Z</time></trkpt>
<trkpt lat="46.29269097" lon="6.97811896"><ele>430.000000044</ele><time>2011-04-13T16:38:48Z</time></trkpt>
<trkpt lat="46.29280798" lon="6.97788192"><ele>431.2000122744</ele><time>2011-04-13T16:38:55Z</time></trkpt>
<trkpt lat="46.29283397" lon="6.97767095"><ele>432.000000108</ele><time>2011-04-13T16:39:00Z</time></trkpt>
<trkpt lat="46.29278694" lon="6.97740692"><ele>431.7999879096</ele><time>2011-04-13T16:39:06Z</time></trkpt>
<trkpt lat="46.29273497" lon="6.97709897"><ele>431.3999939928</ele><time>2011-04-13T16:39:13Z</time></trkpt>
<trkpt lat="46.29266297" lon="6.97668498"><ele>430.7999878776</ele><time>2011-04-13T16:39:22Z</time></trkpt>
<trkpt lat="46.29269298" lon="6.97651500"><ele>431.7999879096</ele><time>2011-04-13T16:39:26Z</time></trkpt>
<trkpt lat="46.29277797" lon="6.97629497"><ele>433.2000123384</ele><time>2011-04-13T16:39:32Z</time></trkpt>
<trkpt lat="46.29287294" lon="6.97610395"><ele>434.6000059824</ele><time>2011-04-13T16:39:38Z</time></trkpt>
<trkpt lat="46.29297797" lon="6.97593497"><ele>435.6000060144</ele><time>2011-04-13T16:39:44Z</time></trkpt>
<trkpt lat="46.29304796" lon="6.97570095"><ele>437.2000121616</ele><time>2011-04-13T16:39:50Z</time></trkpt>
<trkpt lat="46.29311099" lon="6.97538897"><ele>439.7999878608</ele><time>2011-04-13T16:39:58Z</time></trkpt>
<trkpt lat="46.29320294" lon="6.97505998"><ele>442.6000062384</ele><time>2011-04-13T16:40:07Z</time></trkpt>
<trkpt lat="46.29328692" lon="6.97483996"><ele>445.3999938312</ele><time>2011-04-13T16:40:14Z</time></trkpt>
<trkpt lat="46.29332892" lon="6.97475497"><ele>446.79998778</ele><time>2011-04-13T16:40:18Z</time></trkpt>
<trkpt lat="46.29342196" lon="6.97455799"><ele>450.0000000744</ele><time>2011-04-13T16:40:27Z</time></trkpt>
<trkpt lat="46.29351793" lon="6.97445196"><ele>452.0000001384</ele><time>2011-04-13T16:40:34Z</time></trkpt>
<trkpt lat="46.29354693" lon="6.97443696"><ele>452.3999937504</ele><time>2011-04-13T16:40:36Z</time></trkpt>
<trkpt lat="46.29363494" lon="6.97444794"><ele>452.9999998656</ele><time>2011-04-13T16:40:43Z</time></trkpt>
<trkpt lat="46.29376394" lon="6.97453997"><ele>453.3999937824</ele><time>2011-04-13T16:40:51Z</time></trkpt>
<trkpt lat="46.29383896" lon="6.97465899"><ele>453.200012064</ele><time>2011-04-13T16:41:00Z</time></trkpt>
<trkpt lat="46.29393493" lon="6.97476000"><ele>453.7999876992</ele><time>2011-04-13T16:41:11Z</time></trkpt>
<trkpt lat="46.29401296" lon="6.97483795"><ele>454.3999938144</ele><time>2011-04-13T16:41:19Z</time></trkpt>
<trkpt lat="46.29405093" lon="6.97485295"><ele>454.7999877312</ele><time>2011-04-13T16:41:23Z</time></trkpt>
<trkpt lat="46.29408295" lon="6.97484398"><ele>455.200012128</ele><time>2011-04-13T16:41:26Z</time></trkpt>
<trkpt lat="46.29411195" lon="6.97475296"><ele>455.7999877632</ele><time>2011-04-13T16:41:32Z</time></trkpt>
<trkpt lat="46.29415998" lon="6.97463393"><ele>456.7999877952</ele><time>2011-04-13T16:41:39Z</time></trkpt>
<trkpt lat="46.29425394" lon="6.97448398"><ele>457.3999939104</ele><time>2011-04-13T16:41:48Z</time></trkpt>
<trkpt lat="46.29432100" lon="6.97447392"><ele>457.7999878272</ele><time>2011-04-13T16:41:53Z</time></trkpt>
<trkpt lat="46.29433198" lon="6.97447794"><ele>457.7999878272</ele><time>2011-04-13T16:41:54Z</time></trkpt>
<trkpt lat="46.29443298" lon="6.97465396"><ele>458.3999939424</ele><time>2011-04-13T16:42:03Z</time></trkpt>
<trkpt lat="46.29452392" lon="6.97486795"><ele>459.7999878912</ele><time>2011-04-13T16:42:12Z</time></trkpt>
<trkpt lat="46.29453692" lon="6.97502797"><ele>460.200012288</ele><time>2011-04-13T16:42:19Z</time></trkpt>
<trkpt lat="46.29453097" lon="6.97523399"><ele>459.200012256</ele><time>2011-04-13T16:42:28Z</time></trkpt>
<trkpt lat="46.29451294" lon="6.97542099"><ele>458.0000000256</ele><time>2011-04-13T16:42:35Z</time></trkpt>
<trkpt lat="46.29457598" lon="6.97553499"><ele>458.6000061408</ele><time>2011-04-13T16:42:41Z</time></trkpt>
<trkpt lat="46.29465896" lon="6.97562895"><ele>459.6000061728</ele><time>2011-04-13T16:42:47Z</time></trkpt>
<trkpt lat="46.29478695" lon="6.97572794"><ele>461.7999876504</ele><time>2011-04-13T16:42:55Z</time></trkpt>
<trkpt lat="46.29487496" lon="6.97584596"><ele>463.2000120792</ele><time>2011-04-13T16:43:02Z</time></trkpt>
<trkpt lat="46.29495299" lon="6.97598493"><ele>463.2000120792</ele><time>2011-04-13T16:43:10Z</time></trkpt>
<trkpt lat="46.29496498" lon="6.97601594"><ele>462.9999998808</ele><time>2011-04-13T16:43:11Z</time></trkpt>
<trkpt lat="46.29494797" lon="6.97613899"><ele>461.20001232</ele><time>2011-04-13T16:43:14Z</time></trkpt>
<trkpt lat="46.29498292" lon="6.97620797"><ele>461.0000001216</ele><time>2011-04-13T16:43:18Z</time></trkpt>
<trkpt lat="46.29498895" lon="6.97612792"><ele>462.200012352</ele><time>2011-04-13T16:43:23Z</time></trkpt>
<trkpt lat="46.29497797" lon="6.97604695"><ele>462.7999876824</ele><time>2011-04-13T16:43:28Z</time></trkpt>
<trkpt lat="46.29497093" lon="6.97602994"><ele>462.9999998808</ele><time>2011-04-13T16:43:29Z</time></trkpt>
<trkpt lat="46.29493296" lon="6.97598199"><ele>462.7999876824</ele><time>2011-04-13T16:43:33Z</time></trkpt>
<trkpt lat="46.29491595" lon="6.97597596"><ele>462.3999937656</ele><time>2011-04-13T16:43:37Z</time></trkpt>
<trkpt lat="46.29475795" lon="6.97569500"><ele>461.20001232</ele><time>2011-04-13T16:45:26Z</time></trkpt>
<trkpt lat="46.29453792" lon="6.97527397"><ele>459.0000000576</ele><time>2011-04-13T16:45:31Z</time></trkpt>
<trkpt lat="46.29454496" lon="6.97504699"><ele>460.200012288</ele><time>2011-04-13T16:45:33Z</time></trkpt>
<trkpt lat="46.29440398" lon="6.97452899"><ele>458.200012224</ele><time>2011-04-13T16:45:38Z</time></trkpt>
<trkpt lat="46.29421597" lon="6.97446194"><ele>457.3999939104</ele><time>2011-04-13T16:45:41Z</time></trkpt>
<trkpt lat="46.29414699" lon="6.97461792"><ele>456.6000060768</ele><time>2011-04-13T16:45:43Z</time></trkpt>
<trkpt lat="46.29407499" lon="6.97483099"><ele>455.200012128</ele><time>2011-04-13T16:45:46Z</time></trkpt>
<trkpt lat="46.29397692" lon="6.97480995"><ele>453.9999998976</ele><time>2011-04-13T16:45:48Z</time></trkpt>
<trkpt lat="46.29391892" lon="6.97475597"><ele>453.6000059808</ele><time>2011-04-13T16:45:49Z</time></trkpt>
<trkpt lat="46.29380593" lon="6.97464994"><ele>452.9999998656</ele><time>2011-04-13T16:45:51Z</time></trkpt>
<trkpt lat="46.29354693" lon="6.97443796"><ele>452.3999937504</ele><time>2011-04-13T16:45:56Z</time></trkpt>
<trkpt lat="46.29339597" lon="6.97459797"><ele>449.3999939592</ele><time>2011-04-13T16:45:58Z</time></trkpt>
<trkpt lat="46.29329095" lon="6.97483795"><ele>445.6000060296</ele><time>2011-04-13T16:46:00Z</time></trkpt>
<trkpt lat="46.29304896" lon="6.97561394"><ele>437.7999877968</ele><time>2011-04-13T16:46:06Z</time></trkpt>
<trkpt lat="46.29298492" lon="6.97586892"><ele>435.7999877328</ele><time>2011-04-13T16:46:08Z</time></trkpt>
<trkpt lat="46.29277596" lon="6.97627494"><ele>433.399993752</ele><time>2011-04-13T16:46:12Z</time></trkpt>
<trkpt lat="46.29264294" lon="6.97659999"><ele>430.7999878776</ele><time>2011-04-13T16:46:15Z</time></trkpt>
<trkpt lat="46.29265895" lon="6.97702797"><ele>430.3999939608</ele><time>2011-04-13T16:46:19Z</time></trkpt>
<trkpt lat="46.29277999" lon="6.97764094"><ele>431.3999939928</ele><time>2011-04-13T16:46:25Z</time></trkpt>
<trkpt lat="46.29272492" lon="6.97804294"><ele>430.2000122424</ele><time>2011-04-13T16:46:29Z</time></trkpt>
<trkpt lat="46.29264294" lon="6.97831795"><ele>429.6000061272</ele><time>2011-04-13T16:46:32Z</time></trkpt>
<trkpt lat="46.29246499" lon="6.97851894"><ele>427.6000060632</ele><time>2011-04-13T16:46:37Z</time></trkpt>
<trkpt lat="46.29191497" lon="6.97832096"><ele>420.3999939456</ele><time>2011-04-13T16:46:43Z</time></trkpt>
<trkpt lat="46.29182797" lon="6.97827595"><ele>418.9999999968</ele><time>2011-04-13T16:46:44Z</time></trkpt>
<trkpt lat="46.29144492" lon="6.97825793"><ele>417.7999877664</ele><time>2011-04-13T16:46:48Z</time></trkpt>
<trkpt lat="46.29134894" lon="6.97832197"><ele>418.7999877984</ele><time>2011-04-13T16:46:49Z</time></trkpt>
<trkpt lat="46.29096396" lon="6.97861198"><ele>422.600006208</ele><time>2011-04-13T16:46:53Z</time></trkpt>
<trkpt lat="46.29070999" lon="6.97863294"><ele>426.7999877496</ele><time>2011-04-13T16:46:56Z</time></trkpt>
<trkpt lat="46.29062894" lon="6.97842993"><ele>427.3999938648</ele><time>2011-04-13T16:46:58Z</time></trkpt>
<trkpt lat="46.29060999" lon="6.97831795"><ele>426.7999877496</ele><time>2011-04-13T16:46:59Z</time></trkpt>
<trkpt lat="46.29053297" lon="6.97772099"><ele>425.2000120824</ele><time>2011-04-13T16:47:04Z</time></trkpt>
<trkpt lat="46.29048795" lon="6.97706996"><ele>421.600006176</ele><time>2011-04-13T16:47:09Z</time></trkpt>
<trkpt lat="46.29025393" lon="6.97622096"><ele>421.600006176</ele><time>2011-04-13T16:47:16Z</time></trkpt>
<trkpt lat="46.29007598" lon="6.97560598"><ele>422.0000000928</ele><time>2011-04-13T16:47:22Z</time></trkpt>
<trkpt lat="46.28997297" lon="6.97501799"><ele>422.2000122912</ele><time>2011-04-13T16:47:28Z</time></trkpt>
<trkpt lat="46.28989393" lon="6.97427795"><ele>423.999999852</ele><time>2011-04-13T16:47:36Z</time></trkpt>
<trkpt lat="46.28979594" lon="6.97357094"><ele>418.9999999968</ele><time>2011-04-13T16:47:44Z</time></trkpt>
<trkpt lat="46.28976292" lon="6.97330993"><ele>415.9999999008</ele><time>2011-04-13T16:47:47Z</time></trkpt>
<trkpt lat="46.28971397" lon="6.97302394"><ele>412.200012276</ele><time>2011-04-13T16:47:50Z</time></trkpt>
<trkpt lat="46.28952898" lon="6.97266393"><ele>408.3999938664</ele><time>2011-04-13T16:47:54Z</time></trkpt>
<trkpt lat="46.28924098" lon="6.97248196"><ele>407.7999877512</ele><time>2011-04-13T16:47:57Z</time></trkpt>
<trkpt lat="46.28898298" lon="6.97214493"><ele>406.9999999176</ele><time>2011-04-13T16:48:00Z</time></trkpt>
<trkpt lat="46.28876598" lon="6.97168300"><ele>404.3999940432</ele><time>2011-04-13T16:48:03Z</time></trkpt>
<trkpt lat="46.28869398" lon="6.97133096"><ele>400.6000061136</ele><time>2011-04-13T16:48:05Z</time></trkpt>
<trkpt lat="46.28858099" lon="6.97050199"><ele>391.7999878488</ele><time>2011-04-13T16:48:10Z</time></trkpt>
<trkpt lat="46.28852198" lon="6.96998499"><ele>388.2000121176</ele><time>2011-04-13T16:48:14Z</time></trkpt>
<trkpt lat="46.28848292" lon="6.96952198"><ele>387.7999877208</ele><time>2011-04-13T16:48:19Z</time></trkpt>
<trkpt lat="46.28842894" lon="6.96896098"><ele>387.7999877208</ele><time>2011-04-13T16:48:25Z</time></trkpt>
<trkpt lat="46.28833397" lon="6.96836594"><ele>387.7999877208</ele><time>2011-04-13T16:48:30Z</time></trkpt>
<trkpt lat="46.28815896" lon="6.96756598"><ele>388.6000060344</ele><time>2011-04-13T16:48:36Z</time></trkpt>
<trkpt lat="46.28799995" lon="6.96699592"><ele>388.399993836</ele><time>2011-04-13T16:48:41Z</time></trkpt>
<trkpt lat="46.28777892" lon="6.96616896"><ele>387.9999999192</ele><time>2011-04-13T16:48:49Z</time></trkpt>
<trkpt lat="46.28755999" lon="6.96532600"><ele>387.6000060024</ele><time>2011-04-13T16:48:58Z</time></trkpt>
<trkpt lat="46.28735295" lon="6.96452393"><ele>388.6000060344</ele><time>2011-04-13T16:49:07Z</time></trkpt>
<trkpt lat="46.28724793" lon="6.96408397"><ele>388.9999999512</ele><time>2011-04-13T16:49:12Z</time></trkpt>
<trkpt lat="46.28716495" lon="6.96377199"><ele>389.9999999832</ele><time>2011-04-13T16:49:16Z</time></trkpt>
<trkpt lat="46.28699698" lon="6.96313497"><ele>391.2000122136</ele><time>2011-04-13T16:49:25Z</time></trkpt>
<trkpt lat="46.28683194" lon="6.96253097"><ele>391.6000061304</ele><time>2011-04-13T16:49:33Z</time></trkpt>
<trkpt lat="46.28663999" lon="6.96181398"><ele>393.399993996</ele><time>2011-04-13T16:49:42Z</time></trkpt>
<trkpt lat="46.28645894" lon="6.96115893"><ele>392.399993964</ele><time>2011-04-13T16:49:51Z</time></trkpt>
<trkpt lat="46.28636699" lon="6.96079097"><ele>391.7999878488</ele><time>2011-04-13T16:49:57Z</time></trkpt>
<trkpt lat="46.28628896" lon="6.96047899"><ele>391.7999878488</ele><time>2011-04-13T16:50:03Z</time></trkpt>
<trkpt lat="46.28618293" lon="6.96008094"><ele>392.399993964</ele><time>2011-04-13T16:50:09Z</time></trkpt>
<trkpt lat="46.28605695" lon="6.95958096"><ele>394.0000001112</ele><time>2011-04-13T16:50:16Z</time></trkpt>
<trkpt lat="46.28591395" lon="6.95905298"><ele>395.3999937552</ele><time>2011-04-13T16:50:23Z</time></trkpt>
<trkpt lat="46.28579300" lon="6.95869993"><ele>394.7999879448</ele><time>2011-04-13T16:50:29Z</time></trkpt>
<trkpt lat="46.28563995" lon="6.95872894"><ele>394.6000062264</ele><time>2011-04-13T16:50:34Z</time></trkpt>
<trkpt lat="46.28561195" lon="6.95876598"><ele>394.6000062264</ele><time>2011-04-13T16:50:35Z</time></trkpt>
<trkpt lat="46.28542596" lon="6.95896296"><ele>394.6000062264</ele><time>2011-04-13T16:50:41Z</time></trkpt>
<trkpt lat="46.28521792" lon="6.95920293"><ele>394.399994028</ele><time>2011-04-13T16:50:48Z</time></trkpt>
<trkpt lat="46.28498197" lon="6.95950795"><ele>393.399993996</ele><time>2011-04-13T16:50:55Z</time></trkpt>
<trkpt lat="46.28464200" lon="6.95990693"><ele>391.7999878488</ele><time>2011-04-13T16:51:04Z</time></trkpt>
<trkpt lat="46.28424997" lon="6.96030892"><ele>390.3999939</ele><time>2011-04-13T16:51:13Z</time></trkpt>
<trkpt lat="46.28381194" lon="6.96071193"><ele>392.7999878808</ele><time>2011-04-13T16:51:22Z</time></trkpt>
<trkpt lat="46.28333392" lon="6.96106698"><ele>394.7999879448</ele><time>2011-04-13T16:51:31Z</time></trkpt>
<trkpt lat="46.28295698" lon="6.96128793"><ele>394.399994028</ele><time>2011-04-13T16:51:38Z</time></trkpt>
<trkpt lat="46.28241895" lon="6.96153092"><ele>393.7999879128</ele><time>2011-04-13T16:51:47Z</time></trkpt>
<trkpt lat="46.28199298" lon="6.96171599"><ele>393.7999879128</ele><time>2011-04-13T16:51:54Z</time></trkpt>
<trkpt lat="46.28139594" lon="6.96198396"><ele>394.0000001112</ele><time>2011-04-13T16:52:04Z</time></trkpt>
<trkpt lat="46.28091892" lon="6.96217700"><ele>394.2000123096</ele><time>2011-04-13T16:52:12Z</time></trkpt>
<trkpt lat="46.28054400" lon="6.96229694"><ele>394.399994028</ele><time>2011-04-13T16:52:18Z</time></trkpt>
<trkpt lat="46.27985392" lon="6.96250699"><ele>394.7999879448</ele><time>2011-04-13T16:52:29Z</time></trkpt>
<trkpt lat="46.27948595" lon="6.96262392"><ele>394.399994028</ele><time>2011-04-13T16:52:35Z</time></trkpt>
<trkpt lat="46.27899896" lon="6.96275099"><ele>394.0000001112</ele><time>2011-04-13T16:52:43Z</time></trkpt>
<trkpt lat="46.27858196" lon="6.96284093"><ele>394.6000062264</ele><time>2011-04-13T16:52:50Z</time></trkpt>
<trkpt lat="46.27824199" lon="6.96288192"><ele>395.2000123416</ele><time>2011-04-13T16:52:56Z</time></trkpt>
<trkpt lat="46.27783899" lon="6.96292793"><ele>395.3999937552</ele><time>2011-04-13T16:53:03Z</time></trkpt>
<trkpt lat="46.27731294" lon="6.96300698"><ele>394.2000123096</ele><time>2011-04-13T16:53:12Z</time></trkpt>
<trkpt lat="46.27693794" lon="6.96318492"><ele>391.399993932</ele><time>2011-04-13T16:53:18Z</time></trkpt>
<trkpt lat="46.27657400" lon="6.96333194"><ele>389.9999999832</ele><time>2011-04-13T16:53:23Z</time></trkpt>
<trkpt lat="46.27625397" lon="6.96342599"><ele>390.3999939</ele><time>2011-04-13T16:53:27Z</time></trkpt>
<trkpt lat="46.27602397" lon="6.96348500"><ele>390.7999878168</ele><time>2011-04-13T16:53:31Z</time></trkpt>
<trkpt lat="46.27574494" lon="6.96351299"><ele>391.399993932</ele><time>2011-04-13T16:53:37Z</time></trkpt>
<trkpt lat="46.27538997" lon="6.96362296"><ele>392.399993964</ele><time>2011-04-13T16:53:44Z</time></trkpt>
<trkpt lat="46.27483098" lon="6.96383494"><ele>393.6000061944</ele><time>2011-04-13T16:53:54Z</time></trkpt>
<trkpt lat="46.27425900" lon="6.96404298"><ele>395.3999937552</ele><time>2011-04-13T16:54:04Z</time></trkpt>
<trkpt lat="46.27385298" lon="6.96418799"><ele>395.9999998704</ele><time>2011-04-13T16:54:11Z</time></trkpt>
<trkpt lat="46.27320598" lon="6.96429695"><ele>396.799987704</ele><time>2011-04-13T16:54:22Z</time></trkpt>
<trkpt lat="46.27272595" lon="6.96435093"><ele>397.6000060176</ele><time>2011-04-13T16:54:30Z</time></trkpt>
<trkpt lat="46.27225195" lon="6.96441497"><ele>397.3999938192</ele><time>2011-04-13T16:54:38Z</time></trkpt>
<trkpt lat="46.27183797" lon="6.96448294"><ele>396.6000059856</ele><time>2011-04-13T16:54:45Z</time></trkpt>
<trkpt lat="46.27135299" lon="6.96457800"><ele>395.799987672</ele><time>2011-04-13T16:54:53Z</time></trkpt>
<trkpt lat="46.27086692" lon="6.96470699"><ele>395.0000001432</ele><time>2011-04-13T16:55:01Z</time></trkpt>
<trkpt lat="46.27044892" lon="6.96485996"><ele>395.0000001432</ele><time>2011-04-13T16:55:08Z</time></trkpt>
<trkpt lat="46.26978499" lon="6.96512894"><ele>395.0000001432</ele><time>2011-04-13T16:55:19Z</time></trkpt>
<trkpt lat="46.26919499" lon="6.96548400"><ele>395.3999937552</ele><time>2011-04-13T16:55:29Z</time></trkpt>
<trkpt lat="46.26863499" lon="6.96589697"><ele>394.7999879448</ele><time>2011-04-13T16:55:39Z</time></trkpt>
<trkpt lat="46.26816493" lon="6.96630199"><ele>395.0000001432</ele><time>2011-04-13T16:55:48Z</time></trkpt>
<trkpt lat="46.26765096" lon="6.96681395"><ele>397.9999999344</ele><time>2011-04-13T16:55:58Z</time></trkpt>
<trkpt lat="46.26724695" lon="6.96725392"><ele>399.7999878</ele><time>2011-04-13T16:56:06Z</time></trkpt>
<trkpt lat="46.26672694" lon="6.96785993"><ele>402.2000122608</ele><time>2011-04-13T16:56:17Z</time></trkpt>
<trkpt lat="46.26625998" lon="6.96840794"><ele>400.799987832</ele><time>2011-04-13T16:56:27Z</time></trkpt>
<trkpt lat="46.26583493" lon="6.96890297"><ele>396.9999999024</ele><time>2011-04-13T16:56:36Z</time></trkpt>
<trkpt lat="46.26526396" lon="6.96957897"><ele>393.6000061944</ele><time>2011-04-13T16:56:48Z</time></trkpt>
<trkpt lat="46.26473699" lon="6.97020493"><ele>395.2000123416</ele><time>2011-04-13T16:56:59Z</time></trkpt>
<trkpt lat="46.26425897" lon="6.97075998"><ele>394.2000123096</ele><time>2011-04-13T16:57:09Z</time></trkpt>
<trkpt lat="46.26382294" lon="6.97127698"><ele>393.0000000792</ele><time>2011-04-13T16:57:18Z</time></trkpt>
<trkpt lat="46.26330595" lon="6.97189095"><ele>392.0000000472</ele><time>2011-04-13T16:57:29Z</time></trkpt>
<trkpt lat="46.26288098" lon="6.97239194"><ele>391.7999878488</ele><time>2011-04-13T16:57:38Z</time></trkpt>
<trkpt lat="46.26251092" lon="6.97281992"><ele>392.0000000472</ele><time>2011-04-13T16:57:46Z</time></trkpt>
<trkpt lat="46.26208998" lon="6.97331395"><ele>394.399994028</ele><time>2011-04-13T16:57:55Z</time></trkpt>
<trkpt lat="46.26170492" lon="6.97375895"><ele>396.9999999024</ele><time>2011-04-13T16:58:03Z</time></trkpt>
<trkpt lat="46.26127199" lon="6.97426496"><ele>398.6000060496</ele><time>2011-04-13T16:58:12Z</time></trkpt>
<trkpt lat="46.26089095" lon="6.97470300"><ele>399.2000121648</ele><time>2011-04-13T16:58:20Z</time></trkpt>
<trkpt lat="46.26043296" lon="6.97526299"><ele>398.3999938512</ele><time>2011-04-13T16:58:30Z</time></trkpt>
<trkpt lat="46.26008294" lon="6.97575795"><ele>395.6000059536</ele><time>2011-04-13T16:58:38Z</time></trkpt>
<trkpt lat="46.25964800" lon="6.97639497"><ele>396.2000120688</ele><time>2011-04-13T16:58:48Z</time></trkpt>
<trkpt lat="46.25920795" lon="6.97707994"><ele>398.3999938512</ele><time>2011-04-13T16:58:58Z</time></trkpt>
<trkpt lat="46.25885398" lon="6.97759794"><ele>397.799987736</ele><time>2011-04-13T16:59:06Z</time></trkpt>
<trkpt lat="46.25843095" lon="6.97824393"><ele>398.3999938512</ele><time>2011-04-13T16:59:16Z</time></trkpt>
<trkpt lat="46.25820497" lon="6.97861198"><ele>399.2000121648</ele><time>2011-04-13T16:59:22Z</time></trkpt>
<trkpt lat="46.25786198" lon="6.97913795"><ele>397.9999999344</ele><time>2011-04-13T16:59:31Z</time></trkpt>
<trkpt lat="46.25742696" lon="6.97979098"><ele>399.3999938832</ele><time>2011-04-13T16:59:42Z</time></trkpt>
<trkpt lat="46.25702597" lon="6.98039993"><ele>400.799987832</ele><time>2011-04-13T16:59:52Z</time></trkpt>
<trkpt lat="46.25669799" lon="6.98089496"><ele>402.3999939792</ele><time>2011-04-13T17:00:00Z</time></trkpt>
<trkpt lat="46.25638895" lon="6.98140693"><ele>403.2000122928</ele><time>2011-04-13T17:00:08Z</time></trkpt>
<trkpt lat="46.25607094" lon="6.98202392"><ele>401.6000061456</ele><time>2011-04-13T17:00:17Z</time></trkpt>
<trkpt lat="46.25600095" lon="6.98216398"><ele>401.2000122288</ele><time>2011-04-13T17:00:19Z</time></trkpt>
<trkpt lat="46.25573197" lon="6.98269699"><ele>400.799987832</ele><time>2011-04-13T17:00:27Z</time></trkpt>
<trkpt lat="46.25561899" lon="6.98293193"><ele>401.2000122288</ele><time>2011-04-13T17:00:31Z</time></trkpt>
<trkpt lat="46.25532193" lon="6.98351992"><ele>399.6000060816</ele><time>2011-04-13T17:00:40Z</time></trkpt>
<trkpt lat="46.25497098" lon="6.98422199"><ele>398.799987768</ele><time>2011-04-13T17:00:50Z</time></trkpt>
<trkpt lat="46.25459597" lon="6.98499799"><ele>397.3999938192</ele><time>2011-04-13T17:01:01Z</time></trkpt>
<trkpt lat="46.25432792" lon="6.98557097"><ele>397.3999938192</ele><time>2011-04-13T17:01:09Z</time></trkpt>
<trkpt lat="46.25402994" lon="6.98611597"><ele>399.6000060816</ele><time>2011-04-13T17:01:17Z</time></trkpt>
<trkpt lat="46.25372996" lon="6.98665098"><ele>401.799987864</ele><time>2011-04-13T17:01:25Z</time></trkpt>
<trkpt lat="46.25340097" lon="6.98709195"><ele>401.0000000304</ele><time>2011-04-13T17:01:33Z</time></trkpt>
<trkpt lat="46.25313895" lon="6.98742799"><ele>400.2000121968</ele><time>2011-04-13T17:01:39Z</time></trkpt>
<trkpt lat="46.25279395" lon="6.98778195"><ele>398.799987768</ele><time>2011-04-13T17:01:46Z</time></trkpt>
<trkpt lat="46.25237594" lon="6.98812393"><ele>397.9999999344</ele><time>2011-04-13T17:01:54Z</time></trkpt>
<trkpt lat="46.25195299" lon="6.98838294"><ele>398.3999938512</ele><time>2011-04-13T17:02:02Z</time></trkpt>
<trkpt lat="46.25145092" lon="6.98861897"><ele>398.3999938512</ele><time>2011-04-13T17:02:11Z</time></trkpt>
<trkpt lat="46.25107398" lon="6.98873498"><ele>399.2000121648</ele><time>2011-04-13T17:02:18Z</time></trkpt>
<trkpt lat="46.25057392" lon="6.98882299"><ele>399.3999938832</ele><time>2011-04-13T17:02:27Z</time></trkpt>
<trkpt lat="46.24997796" lon="6.98889096"><ele>397.9999999344</ele><time>2011-04-13T17:02:37Z</time></trkpt>
<trkpt lat="46.24944496" lon="6.98892994"><ele>398.9999999664</ele><time>2011-04-13T17:02:46Z</time></trkpt>
<trkpt lat="46.24889595" lon="6.98899892"><ele>399.9999999984</ele><time>2011-04-13T17:02:55Z</time></trkpt>
<trkpt lat="46.24823495" lon="6.98908098"><ele>400.3999939152</ele><time>2011-04-13T17:03:06Z</time></trkpt>
<trkpt lat="46.24769599" lon="6.98915600"><ele>399.3999938832</ele><time>2011-04-13T17:03:15Z</time></trkpt>
<trkpt lat="46.24727899" lon="6.98919095"><ele>398.6000060496</ele><time>2011-04-13T17:03:22Z</time></trkpt>
<trkpt lat="46.24722493" lon="6.98919992"><ele>398.6000060496</ele><time>2011-04-13T17:03:23Z</time></trkpt>
<trkpt lat="46.24680994" lon="6.98925298"><ele>397.9999999344</ele><time>2011-04-13T17:03:30Z</time></trkpt>
<trkpt lat="46.24645698" lon="6.98930193"><ele>397.799987736</ele><time>2011-04-13T17:03:37Z</time></trkpt>
<trkpt lat="46.24589698" lon="6.98937795"><ele>397.6000060176</ele><time>2011-04-13T17:03:48Z</time></trkpt>
<trkpt lat="46.24538292" lon="6.98946697"><ele>397.9999999344</ele><time>2011-04-13T17:03:58Z</time></trkpt>
<trkpt lat="46.24493399" lon="6.98960493"><ele>398.3999938512</ele><time>2011-04-13T17:04:07Z</time></trkpt>
<trkpt lat="46.24449796" lon="6.98983996"><ele>398.799987768</ele><time>2011-04-13T17:04:16Z</time></trkpt>
<trkpt lat="46.24410795" lon="6.99010097"><ele>398.799987768</ele><time>2011-04-13T17:04:24Z</time></trkpt>
<trkpt lat="46.24371794" lon="6.99044094"><ele>398.3999938512</ele><time>2011-04-13T17:04:32Z</time></trkpt>
<trkpt lat="46.24338392" lon="6.99083498"><ele>397.9999999344</ele><time>2011-04-13T17:04:39Z</time></trkpt>
<trkpt lat="46.24333992" lon="6.99089197"><ele>397.9999999344</ele><time>2011-04-13T17:04:40Z</time></trkpt>
<trkpt lat="46.24332500" lon="6.99110898"><ele>398.6000060496</ele><time>2011-04-13T17:04:43Z</time></trkpt>
<trkpt lat="46.24335593" lon="6.99117897"><ele>398.799987768</ele><time>2011-04-13T17:04:44Z</time></trkpt>
<trkpt lat="46.24395196" lon="6.99219394"><ele>401.799987864</ele><time>2011-04-13T17:05:00Z</time></trkpt>
<trkpt lat="46.24415397" lon="6.99266894"><ele>402.6000061776</ele><time>2011-04-13T17:05:07Z</time></trkpt>
<trkpt lat="46.24429193" lon="6.99322097"><ele>402.2000122608</ele><time>2011-04-13T17:05:15Z</time></trkpt>
<trkpt lat="46.24439796" lon="6.99371399"><ele>402.3999939792</ele><time>2011-04-13T17:05:22Z</time></trkpt>
<trkpt lat="46.24459796" lon="6.99432193"><ele>403.0000000944</ele><time>2011-04-13T17:05:31Z</time></trkpt>
<trkpt lat="46.24468798" lon="6.99462695"><ele>403.0000000944</ele><time>2011-04-13T17:05:36Z</time></trkpt>
<trkpt lat="46.24477398" lon="6.99495695"><ele>403.0000000944</ele><time>2011-04-13T17:05:41Z</time></trkpt>
<trkpt lat="46.24489794" lon="6.99551694"><ele>403.6000062096</ele><time>2011-04-13T17:05:49Z</time></trkpt>
<trkpt lat="46.24498897" lon="6.99590896"><ele>404.0000001264</ele><time>2011-04-13T17:05:55Z</time></trkpt>
<trkpt lat="46.24506500" lon="6.99624600"><ele>404.3999940432</ele><time>2011-04-13T17:06:01Z</time></trkpt>
<trkpt lat="46.24518394" lon="6.99657499"><ele>404.6000062416</ele><time>2011-04-13T17:06:07Z</time></trkpt>
<trkpt lat="46.24533196" lon="6.99692200"><ele>404.7999876552</ele><time>2011-04-13T17:06:12Z</time></trkpt>
<trkpt lat="46.24546096" lon="6.99725199"><ele>404.9999998536</ele><time>2011-04-13T17:06:17Z</time></trkpt>
<trkpt lat="46.24544495" lon="6.99732693"><ele>405.2000123568</ele><time>2011-04-13T17:06:18Z</time></trkpt>
<trkpt lat="46.24540497" lon="6.99746699"><ele>405.3999937704</ele><time>2011-04-13T17:06:20Z</time></trkpt>
<trkpt lat="46.24538996" lon="6.99780998"><ele>405.9999998856</ele><time>2011-04-13T17:06:25Z</time></trkpt>
<trkpt lat="46.24553396" lon="6.99851297"><ele>407.6000060328</ele><time>2011-04-13T17:06:36Z</time></trkpt>
<trkpt lat="46.24568098" lon="6.99918897"><ele>409.7999878152</ele><time>2011-04-13T17:06:46Z</time></trkpt>
<trkpt lat="46.24584996" lon="6.99994393"><ele>410.7999878472</ele><time>2011-04-13T17:06:57Z</time></trkpt>
<trkpt lat="46.24600494" lon="7.00063795"><ele>409.7999878152</ele><time>2011-04-13T17:07:07Z</time></trkpt>
<trkpt lat="46.24616495" lon="7.00137497"><ele>409.20001218</ele><time>2011-04-13T17:07:18Z</time></trkpt>
<trkpt lat="46.24629697" lon="7.00193295"><ele>409.7999878152</ele><time>2011-04-13T17:07:27Z</time></trkpt>
<trkpt lat="46.24641893" lon="7.00236898"><ele>411.3999939624</ele><time>2011-04-13T17:07:33Z</time></trkpt>
<trkpt lat="46.24651096" lon="7.00272999"><ele>412.3999939944</ele><time>2011-04-13T17:07:39Z</time></trkpt>
<trkpt lat="46.24662596" lon="7.00308798"><ele>413.3999940264</ele><time>2011-04-13T17:07:47Z</time></trkpt>
<trkpt lat="46.24675194" lon="7.00348293"><ele>414.0000001416</ele><time>2011-04-13T17:07:56Z</time></trkpt>
<trkpt lat="46.24675294" lon="7.00367195"><ele>414.20001234</ele><time>2011-04-13T17:08:00Z</time></trkpt>
<trkpt lat="46.24679293" lon="7.00384897"><ele>414.3999937536</ele><time>2011-04-13T17:08:04Z</time></trkpt>
<trkpt lat="46.24698194" lon="7.00404595"><ele>414.3999937536</ele><time>2011-04-13T17:08:10Z</time></trkpt>
<trkpt lat="46.24717296" lon="7.00435893"><ele>414.20001234</ele><time>2011-04-13T17:08:17Z</time></trkpt>
<trkpt lat="46.24730397" lon="7.00473997"><ele>413.6000062248</ele><time>2011-04-13T17:08:24Z</time></trkpt>
<trkpt lat="46.24746297" lon="7.00524196"><ele>413.6000062248</ele><time>2011-04-13T17:08:33Z</time></trkpt>
<trkpt lat="46.24759692" lon="7.00576792"><ele>414.9999998688</ele><time>2011-04-13T17:08:42Z</time></trkpt>
<trkpt lat="46.24768795" lon="7.00642196"><ele>416.600006016</ele><time>2011-04-13T17:08:53Z</time></trkpt>
<trkpt lat="46.24764595" lon="7.00663897"><ele>416.9999999328</ele><time>2011-04-13T17:08:57Z</time></trkpt>
<trkpt lat="46.24737597" lon="7.00704499"><ele>417.3999938496</ele><time>2011-04-13T17:09:07Z</time></trkpt>
<trkpt lat="46.24709794" lon="7.00728195"><ele>418.7999877984</ele><time>2011-04-13T17:09:15Z</time></trkpt>
<trkpt lat="46.24676292" lon="7.00754195"><ele>420.3999939456</ele><time>2011-04-13T17:09:24Z</time></trkpt>
<trkpt lat="46.24648900" lon="7.00782300"><ele>421.3999939776</ele><time>2011-04-13T17:09:32Z</time></trkpt>
<trkpt lat="46.24632496" lon="7.00811092"><ele>422.2000122912</ele><time>2011-04-13T17:09:39Z</time></trkpt>
<trkpt lat="46.24614593" lon="7.00856497"><ele>423.7999876536</ele><time>2011-04-13T17:09:50Z</time></trkpt>
<trkpt lat="46.24604492" lon="7.00881592"><ele>424.6000059672</ele><time>2011-04-13T17:09:57Z</time></trkpt>
<trkpt lat="46.24596597" lon="7.00906293"><ele>425.2000120824</ele><time>2011-04-13T17:10:03Z</time></trkpt>
<trkpt lat="46.24601793" lon="7.00929796"><ele>425.2000120824</ele><time>2011-04-13T17:10:08Z</time></trkpt>
<trkpt lat="46.24614693" lon="7.00968697"><ele>425.3999938008</ele><time>2011-04-13T17:10:17Z</time></trkpt>
<trkpt lat="46.24626294" lon="7.01007597"><ele>425.3999938008</ele><time>2011-04-13T17:10:26Z</time></trkpt>
<trkpt lat="46.24631499" lon="7.01040496"><ele>425.3999938008</ele><time>2011-04-13T17:10:33Z</time></trkpt>
<trkpt lat="46.24637794" lon="7.01079799"><ele>425.6000059992</ele><time>2011-04-13T17:10:41Z</time></trkpt>
<trkpt lat="46.24643192" lon="7.01114693"><ele>426.999999948</ele><time>2011-04-13T17:10:48Z</time></trkpt>
<trkpt lat="46.24646997" lon="7.01156292"><ele>428.7999878136</ele><time>2011-04-13T17:10:56Z</time></trkpt>
<trkpt lat="46.24649495" lon="7.01179694"><ele>429.2000122104</ele><time>2011-04-13T17:11:01Z</time></trkpt>
<trkpt lat="46.24634500" lon="7.01199300"><ele>429.7999878456</ele><time>2011-04-13T17:11:08Z</time></trkpt>
<trkpt lat="46.24614492" lon="7.01226298"><ele>431.2000122744</ele><time>2011-04-13T17:11:16Z</time></trkpt>
<trkpt lat="46.24609396" lon="7.01246599"><ele>432.000000108</ele><time>2011-04-13T17:11:21Z</time></trkpt>
<trkpt lat="46.24611592" lon="7.01255894"><ele>432.000000108</ele><time>2011-04-13T17:11:26Z</time></trkpt>
<trkpt lat="46.24613092" lon="7.01257495"><ele>431.7999879096</ele><time>2011-04-13T17:11:30Z</time></trkpt>
</trkseg></trk></gpx>